<?xml version="1.0" encoding="UTF-8" standalone="no" ?>
<gpx xmlns="http://www.topografix.com/GPX/1/1" xmlns:xsi="http://www.w3.org/2001/XMLSchema-instance" xsi:schemaLocation="http://www.topografix.com/GPX/1/1 http://www.topografix.com/GPX/1/1/gpx.xsd" version="1.1" creator="VisuGPX - https://www.visugpx.com">
  <metadata>
    <name>Les Ollières sur Eyrieux</name>
    <desc><![CDATA[File with points/tracks from Locus Map/3.30.4]]></desc>
  </metadata>
  <trk>
    <name><![CDATA[F07360 les Ollières sur Eyrieux MJC]]></name>
    <desc><![CDATA[MJC]]></desc>
    <trkseg>
      <trkpt lat="44.80258" lon="4.61864">
        <ele>171.47</ele>
        <time>2018-05-29T07:58:25.000Z</time>
      </trkpt>
      <trkpt lat="44.80255" lon="4.61877">
        <ele>171.64</ele>
        <time>2018-05-29T07:58:35.000Z</time>
      </trkpt>
      <trkpt lat="44.80258" lon="4.61889">
        <ele>171.45</ele>
        <time>2018-05-29T07:58:45.000Z</time>
      </trkpt>
      <trkpt lat="44.80258" lon="4.61904">
        <ele>171.48</ele>
        <time>2018-05-29T07:58:55.000Z</time>
      </trkpt>
      <trkpt lat="44.80259" lon="4.61917">
        <ele>171.43</ele>
        <time>2018-05-29T07:59:08.000Z</time>
      </trkpt>
      <trkpt lat="44.80254" lon="4.61928">
        <ele>171.81</ele>
        <time>2018-05-29T07:59:26.000Z</time>
      </trkpt>
      <trkpt lat="44.80255" lon="4.61941">
        <ele>171.82</ele>
        <time>2018-05-29T07:59:38.000Z</time>
      </trkpt>
      <trkpt lat="44.80249" lon="4.6195">
        <ele>172.31</ele>
        <time>2018-05-29T07:59:49.000Z</time>
      </trkpt>
      <trkpt lat="44.80245" lon="4.61962">
        <ele>172.74</ele>
        <time>2018-05-29T08:00:03.000Z</time>
      </trkpt>
      <trkpt lat="44.80232" lon="4.6196">
        <ele>173.85</ele>
        <time>2018-05-29T08:00:13.000Z</time>
      </trkpt>
      <trkpt lat="44.80222" lon="4.61961">
        <ele>174.88</ele>
        <time>2018-05-29T08:00:24.000Z</time>
      </trkpt>
      <trkpt lat="44.80214" lon="4.61977">
        <ele>176.65</ele>
        <time>2018-05-29T08:00:34.000Z</time>
      </trkpt>
      <trkpt lat="44.80206" lon="4.61982">
        <ele>178.39</ele>
        <time>2018-05-29T08:00:44.000Z</time>
      </trkpt>
      <trkpt lat="44.80199" lon="4.61992">
        <ele>180.48</ele>
        <time>2018-05-29T08:00:54.000Z</time>
      </trkpt>
      <trkpt lat="44.80191" lon="4.62002">
        <ele>183.42</ele>
        <time>2018-05-29T08:01:06.000Z</time>
      </trkpt>
      <trkpt lat="44.80187" lon="4.62015">
        <ele>186.31</ele>
        <time>2018-05-29T08:01:19.000Z</time>
      </trkpt>
      <trkpt lat="44.80182" lon="4.62026">
        <ele>189.27</ele>
        <time>2018-05-29T08:01:35.000Z</time>
      </trkpt>
      <trkpt lat="44.80188" lon="4.62043">
        <ele>190.08</ele>
        <time>2018-05-29T08:01:45.000Z</time>
      </trkpt>
      <trkpt lat="44.80187" lon="4.62059">
        <ele>192.86</ele>
        <time>2018-05-29T08:02:08.000Z</time>
      </trkpt>
      <trkpt lat="44.80201" lon="4.62063">
        <ele>188.54</ele>
        <time>2018-05-29T08:02:18.000Z</time>
      </trkpt>
      <trkpt lat="44.80211" lon="4.62074">
        <ele>186.43</ele>
        <time>2018-05-29T08:02:28.000Z</time>
      </trkpt>
      <trkpt lat="44.80216" lon="4.62102">
        <ele>188.38</ele>
        <time>2018-05-29T08:02:38.000Z</time>
      </trkpt>
      <trkpt lat="44.8021" lon="4.62112">
        <ele>192.23</ele>
        <time>2018-05-29T08:02:49.000Z</time>
      </trkpt>
      <trkpt lat="44.80219" lon="4.62119">
        <ele>189.36</ele>
        <time>2018-05-29T08:02:59.000Z</time>
      </trkpt>
      <trkpt lat="44.8022" lon="4.62141">
        <ele>192.29</ele>
        <time>2018-05-29T08:03:09.000Z</time>
      </trkpt>
      <trkpt lat="44.80233" lon="4.62156">
        <ele>188.29</ele>
        <time>2018-05-29T08:03:19.000Z</time>
      </trkpt>
      <trkpt lat="44.80233" lon="4.62173">
        <ele>190.46</ele>
        <time>2018-05-29T08:03:29.000Z</time>
      </trkpt>
      <trkpt lat="44.80242" lon="4.62189">
        <ele>188.19</ele>
        <time>2018-05-29T08:03:39.000Z</time>
      </trkpt>
      <trkpt lat="44.80252" lon="4.622">
        <ele>185.7</ele>
        <time>2018-05-29T08:03:49.000Z</time>
      </trkpt>
      <trkpt lat="44.80259" lon="4.62209">
        <ele>184.19</ele>
        <time>2018-05-29T08:04:01.000Z</time>
      </trkpt>
      <trkpt lat="44.80267" lon="4.62227">
        <ele>183.46</ele>
        <time>2018-05-29T08:04:11.000Z</time>
      </trkpt>
      <trkpt lat="44.80269" lon="4.62242">
        <ele>184.62</ele>
        <time>2018-05-29T08:04:21.000Z</time>
      </trkpt>
      <trkpt lat="44.80263" lon="4.62261">
        <ele>188.71</ele>
        <time>2018-05-29T08:04:31.000Z</time>
      </trkpt>
      <trkpt lat="44.80268" lon="4.62281">
        <ele>189.25</ele>
        <time>2018-05-29T08:04:41.000Z</time>
      </trkpt>
      <trkpt lat="44.80269" lon="4.62296">
        <ele>190.47</ele>
        <time>2018-05-29T08:04:51.000Z</time>
      </trkpt>
      <trkpt lat="44.80269" lon="4.62309">
        <ele>192.24</ele>
        <time>2018-05-29T08:05:02.000Z</time>
      </trkpt>
      <trkpt lat="44.80262" lon="4.62324">
        <ele>197.1</ele>
        <time>2018-05-29T08:05:12.000Z</time>
      </trkpt>
      <trkpt lat="44.80263" lon="4.62339">
        <ele>198.92</ele>
        <time>2018-05-29T08:05:22.000Z</time>
      </trkpt>
      <trkpt lat="44.8027" lon="4.62359">
        <ele>200.02</ele>
        <time>2018-05-29T08:05:32.000Z</time>
      </trkpt>
      <trkpt lat="44.80275" lon="4.62374">
        <ele>200.72</ele>
        <time>2018-05-29T08:05:42.000Z</time>
      </trkpt>
      <trkpt lat="44.80282" lon="4.6239">
        <ele>201.02</ele>
        <time>2018-05-29T08:05:52.000Z</time>
      </trkpt>
      <trkpt lat="44.80286" lon="4.62403">
        <ele>201.92</ele>
        <time>2018-05-29T08:06:02.000Z</time>
      </trkpt>
      <trkpt lat="44.80285" lon="4.62423">
        <ele>206.76</ele>
        <time>2018-05-29T08:06:12.000Z</time>
      </trkpt>
      <trkpt lat="44.80294" lon="4.62437">
        <ele>205.85</ele>
        <time>2018-05-29T08:06:22.000Z</time>
      </trkpt>
      <trkpt lat="44.80305" lon="4.62448">
        <ele>203.33</ele>
        <time>2018-05-29T08:06:32.000Z</time>
      </trkpt>
      <trkpt lat="44.80309" lon="4.62466">
        <ele>206.27</ele>
        <time>2018-05-29T08:06:42.000Z</time>
      </trkpt>
      <trkpt lat="44.80318" lon="4.62483">
        <ele>206.41</ele>
        <time>2018-05-29T08:06:52.000Z</time>
      </trkpt>
      <trkpt lat="44.80324" lon="4.62495">
        <ele>206.91</ele>
        <time>2018-05-29T08:07:02.000Z</time>
      </trkpt>
      <trkpt lat="44.80339" lon="4.62495">
        <ele>200.52</ele>
        <time>2018-05-29T08:07:12.000Z</time>
      </trkpt>
      <trkpt lat="44.80345" lon="4.62506">
        <ele>200.29</ele>
        <time>2018-05-29T08:07:22.000Z</time>
      </trkpt>
      <trkpt lat="44.8034" lon="4.62529">
        <ele>207.4</ele>
        <time>2018-05-29T08:07:32.000Z</time>
      </trkpt>
      <trkpt lat="44.80345" lon="4.62542">
        <ele>207.8</ele>
        <time>2018-05-29T08:07:42.000Z</time>
      </trkpt>
      <trkpt lat="44.8035" lon="4.6256">
        <ele>208.73</ele>
        <time>2018-05-29T08:07:52.000Z</time>
      </trkpt>
      <trkpt lat="44.80354" lon="4.62575">
        <ele>209.61</ele>
        <time>2018-05-29T08:08:02.000Z</time>
      </trkpt>
      <trkpt lat="44.80363" lon="4.62585">
        <ele>205.93</ele>
        <time>2018-05-29T08:08:12.000Z</time>
      </trkpt>
      <trkpt lat="44.80374" lon="4.62598">
        <ele>201.58</ele>
        <time>2018-05-29T08:08:22.000Z</time>
      </trkpt>
      <trkpt lat="44.80377" lon="4.62611">
        <ele>201.97</ele>
        <time>2018-05-29T08:08:32.000Z</time>
      </trkpt>
      <trkpt lat="44.80375" lon="4.62624">
        <ele>204.52</ele>
        <time>2018-05-29T08:08:47.000Z</time>
      </trkpt>
      <trkpt lat="44.8037" lon="4.62633">
        <ele>208.71</ele>
        <time>2018-05-29T08:08:57.000Z</time>
      </trkpt>
      <trkpt lat="44.8036" lon="4.62644">
        <ele>214.7</ele>
        <time>2018-05-29T08:09:07.000Z</time>
      </trkpt>
      <trkpt lat="44.80357" lon="4.62657">
        <ele>217.34</ele>
        <time>2018-05-29T08:09:24.000Z</time>
      </trkpt>
      <trkpt lat="44.80364" lon="4.62669">
        <ele>215.5</ele>
        <time>2018-05-29T08:09:39.000Z</time>
      </trkpt>
      <trkpt lat="44.80376" lon="4.62697">
        <ele>212.57</ele>
        <time>2018-05-29T08:09:49.000Z</time>
      </trkpt>
      <trkpt lat="44.80391" lon="4.6271">
        <ele>207.28</ele>
        <time>2018-05-29T08:09:59.000Z</time>
      </trkpt>
      <trkpt lat="44.80408" lon="4.62722">
        <ele>201.93</ele>
        <time>2018-05-29T08:10:09.000Z</time>
      </trkpt>
      <trkpt lat="44.80413" lon="4.62739">
        <ele>201.26</ele>
        <time>2018-05-29T08:10:19.000Z</time>
      </trkpt>
      <trkpt lat="44.80419" lon="4.62754">
        <ele>200.49</ele>
        <time>2018-05-29T08:10:29.000Z</time>
      </trkpt>
      <trkpt lat="44.8042" lon="4.62768">
        <ele>201.39</ele>
        <time>2018-05-29T08:10:39.000Z</time>
      </trkpt>
      <trkpt lat="44.80421" lon="4.62789">
        <ele>202.65</ele>
        <time>2018-05-29T08:10:50.000Z</time>
      </trkpt>
      <trkpt lat="44.80416" lon="4.628">
        <ele>205.63</ele>
        <time>2018-05-29T08:11:00.000Z</time>
      </trkpt>
      <trkpt lat="44.80408" lon="4.62811">
        <ele>209.63</ele>
        <time>2018-05-29T08:11:10.000Z</time>
      </trkpt>
      <trkpt lat="44.80405" lon="4.62833">
        <ele>212.05</ele>
        <time>2018-05-29T08:11:20.000Z</time>
      </trkpt>
      <trkpt lat="44.80408" lon="4.62852">
        <ele>210.41</ele>
        <time>2018-05-29T08:11:30.000Z</time>
      </trkpt>
      <trkpt lat="44.80415" lon="4.62865">
        <ele>207.35</ele>
        <time>2018-05-29T08:11:40.000Z</time>
      </trkpt>
      <trkpt lat="44.80418" lon="4.62878">
        <ele>205.22</ele>
        <time>2018-05-29T08:11:50.000Z</time>
      </trkpt>
      <trkpt lat="44.80414" lon="4.62891">
        <ele>206.38</ele>
        <time>2018-05-29T08:12:00.000Z</time>
      </trkpt>
      <trkpt lat="44.80409" lon="4.62904">
        <ele>208.02</ele>
        <time>2018-05-29T08:12:10.000Z</time>
      </trkpt>
      <trkpt lat="44.80402" lon="4.62924">
        <ele>210.82</ele>
        <time>2018-05-29T08:12:20.000Z</time>
      </trkpt>
      <trkpt lat="44.80391" lon="4.62939">
        <ele>215.19</ele>
        <time>2018-05-29T08:12:30.000Z</time>
      </trkpt>
      <trkpt lat="44.80387" lon="4.62958">
        <ele>216.02</ele>
        <time>2018-05-29T08:12:40.000Z</time>
      </trkpt>
      <trkpt lat="44.80391" lon="4.62976">
        <ele>214.57</ele>
        <time>2018-05-29T08:12:50.000Z</time>
      </trkpt>
      <trkpt lat="44.80405" lon="4.62976">
        <ele>210.58</ele>
        <time>2018-05-29T08:13:00.000Z</time>
      </trkpt>
      <trkpt lat="44.80417" lon="4.62976">
        <ele>207.31</ele>
        <time>2018-05-29T08:13:10.000Z</time>
      </trkpt>
      <trkpt lat="44.80432" lon="4.62971">
        <ele>203.34</ele>
        <time>2018-05-29T08:13:20.000Z</time>
      </trkpt>
      <trkpt lat="44.80447" lon="4.62967">
        <ele>200.06</ele>
        <time>2018-05-29T08:13:30.000Z</time>
      </trkpt>
      <trkpt lat="44.80457" lon="4.62945">
        <ele>195.42</ele>
        <time>2018-05-29T08:13:40.000Z</time>
      </trkpt>
      <trkpt lat="44.8047" lon="4.62965">
        <ele>195.95</ele>
        <time>2018-05-29T08:13:50.000Z</time>
      </trkpt>
      <trkpt lat="44.8048" lon="4.62981">
        <ele>197.17</ele>
        <time>2018-05-29T08:14:00.000Z</time>
      </trkpt>
      <trkpt lat="44.80486" lon="4.62992">
        <ele>198.18</ele>
        <time>2018-05-29T08:14:11.000Z</time>
      </trkpt>
      <trkpt lat="44.80489" lon="4.63013">
        <ele>202.34</ele>
        <time>2018-05-29T08:14:21.000Z</time>
      </trkpt>
      <trkpt lat="44.80494" lon="4.63029">
        <ele>204.96</ele>
        <time>2018-05-29T08:14:31.000Z</time>
      </trkpt>
      <trkpt lat="44.805" lon="4.63046">
        <ele>207.62</ele>
        <time>2018-05-29T08:14:41.000Z</time>
      </trkpt>
      <trkpt lat="44.805" lon="4.63066">
        <ele>212.56</ele>
        <time>2018-05-29T08:14:51.000Z</time>
      </trkpt>
      <trkpt lat="44.80518" lon="4.6307">
        <ele>206.28</ele>
        <time>2018-05-29T08:15:01.000Z</time>
      </trkpt>
      <trkpt lat="44.80523" lon="4.63089">
        <ele>207.65</ele>
        <time>2018-05-29T08:15:11.000Z</time>
      </trkpt>
      <trkpt lat="44.80529" lon="4.63104">
        <ele>207.98</ele>
        <time>2018-05-29T08:15:21.000Z</time>
      </trkpt>
      <trkpt lat="44.80533" lon="4.63124">
        <ele>209.42</ele>
        <time>2018-05-29T08:15:31.000Z</time>
      </trkpt>
      <trkpt lat="44.80537" lon="4.63144">
        <ele>211.24</ele>
        <time>2018-05-29T08:15:41.000Z</time>
      </trkpt>
      <trkpt lat="44.80537" lon="4.63162">
        <ele>215.23</ele>
        <time>2018-05-29T08:15:51.000Z</time>
      </trkpt>
      <trkpt lat="44.80549" lon="4.63173">
        <ele>210.13</ele>
        <time>2018-05-29T08:16:01.000Z</time>
      </trkpt>
      <trkpt lat="44.80562" lon="4.63182">
        <ele>204.85</ele>
        <time>2018-05-29T08:16:11.000Z</time>
      </trkpt>
      <trkpt lat="44.80569" lon="4.63202">
        <ele>206.09</ele>
        <time>2018-05-29T08:16:21.000Z</time>
      </trkpt>
      <trkpt lat="44.80575" lon="4.63216">
        <ele>206.95</ele>
        <time>2018-05-29T08:16:31.000Z</time>
      </trkpt>
      <trkpt lat="44.80581" lon="4.63228">
        <ele>207.51</ele>
        <time>2018-05-29T08:16:41.000Z</time>
      </trkpt>
      <trkpt lat="44.80593" lon="4.63224">
        <ele>199.98</ele>
        <time>2018-05-29T08:16:51.000Z</time>
      </trkpt>
      <trkpt lat="44.80599" lon="4.63238">
        <ele>201.07</ele>
        <time>2018-05-29T08:17:03.000Z</time>
      </trkpt>
      <trkpt lat="44.80599" lon="4.63252">
        <ele>205.08</ele>
        <time>2018-05-29T08:17:13.000Z</time>
      </trkpt>
      <trkpt lat="44.80607" lon="4.63259">
        <ele>201.87</ele>
        <time>2018-05-29T08:17:23.000Z</time>
      </trkpt>
      <trkpt lat="44.80609" lon="4.63273">
        <ele>205.02</ele>
        <time>2018-05-29T08:17:33.000Z</time>
      </trkpt>
      <trkpt lat="44.80622" lon="4.63283">
        <ele>200.61</ele>
        <time>2018-05-29T08:17:43.000Z</time>
      </trkpt>
      <trkpt lat="44.80623" lon="4.63303">
        <ele>205.66</ele>
        <time>2018-05-29T08:17:53.000Z</time>
      </trkpt>
      <trkpt lat="44.80638" lon="4.63309">
        <ele>199.86</ele>
        <time>2018-05-29T08:18:03.000Z</time>
      </trkpt>
      <trkpt lat="44.80638" lon="4.63325">
        <ele>204.73</ele>
        <time>2018-05-29T08:18:13.000Z</time>
      </trkpt>
      <trkpt lat="44.80647" lon="4.63338">
        <ele>204.41</ele>
        <time>2018-05-29T08:18:23.000Z</time>
      </trkpt>
      <trkpt lat="44.80652" lon="4.63355">
        <ele>207.09</ele>
        <time>2018-05-29T08:18:33.000Z</time>
      </trkpt>
      <trkpt lat="44.80665" lon="4.63358">
        <ele>202.31</ele>
        <time>2018-05-29T08:18:43.000Z</time>
      </trkpt>
      <trkpt lat="44.80672" lon="4.63368">
        <ele>202.72</ele>
        <time>2018-05-29T08:18:53.000Z</time>
      </trkpt>
      <trkpt lat="44.80682" lon="4.63368">
        <ele>198.92</ele>
        <time>2018-05-29T08:19:03.000Z</time>
      </trkpt>
      <trkpt lat="44.80699" lon="4.63379">
        <ele>196.75</ele>
        <time>2018-05-29T08:19:13.000Z</time>
      </trkpt>
      <trkpt lat="44.80714" lon="4.63379">
        <ele>191.91</ele>
        <time>2018-05-29T08:19:23.000Z</time>
      </trkpt>
      <trkpt lat="44.80723" lon="4.63392">
        <ele>194.06</ele>
        <time>2018-05-29T08:19:33.000Z</time>
      </trkpt>
      <trkpt lat="44.80732" lon="4.63393">
        <ele>191.73</ele>
        <time>2018-05-29T08:19:43.000Z</time>
      </trkpt>
      <trkpt lat="44.8074" lon="4.63406">
        <ele>194.34</ele>
        <time>2018-05-29T08:19:53.000Z</time>
      </trkpt>
      <trkpt lat="44.8074" lon="4.63424">
        <ele>200.56</ele>
        <time>2018-05-29T08:20:03.000Z</time>
      </trkpt>
      <trkpt lat="44.80753" lon="4.63431">
        <ele>198.93</ele>
        <time>2018-05-29T08:20:13.000Z</time>
      </trkpt>
      <trkpt lat="44.80762" lon="4.63432">
        <ele>196.61</ele>
        <time>2018-05-29T08:20:23.000Z</time>
      </trkpt>
      <trkpt lat="44.80777" lon="4.63443">
        <ele>195.96</ele>
        <time>2018-05-29T08:20:33.000Z</time>
      </trkpt>
      <trkpt lat="44.80788" lon="4.63448">
        <ele>194.16</ele>
        <time>2018-05-29T08:20:43.000Z</time>
      </trkpt>
      <trkpt lat="44.80804" lon="4.63451">
        <ele>190.39</ele>
        <time>2018-05-29T08:20:53.000Z</time>
      </trkpt>
      <trkpt lat="44.80818" lon="4.63459">
        <ele>189.02</ele>
        <time>2018-05-29T08:21:03.000Z</time>
      </trkpt>
      <trkpt lat="44.80823" lon="4.63473">
        <ele>191.7</ele>
        <time>2018-05-29T08:21:13.000Z</time>
      </trkpt>
      <trkpt lat="44.80835" lon="4.63485">
        <ele>191.5</ele>
        <time>2018-05-29T08:21:23.000Z</time>
      </trkpt>
      <trkpt lat="44.8084" lon="4.63498">
        <ele>192.77</ele>
        <time>2018-05-29T08:21:33.000Z</time>
      </trkpt>
      <trkpt lat="44.80845" lon="4.63509">
        <ele>193.35</ele>
        <time>2018-05-29T08:21:44.000Z</time>
      </trkpt>
      <trkpt lat="44.80856" lon="4.63518">
        <ele>191.98</ele>
        <time>2018-05-29T08:21:54.000Z</time>
      </trkpt>
      <trkpt lat="44.80857" lon="4.63532">
        <ele>193.33</ele>
        <time>2018-05-29T08:22:04.000Z</time>
      </trkpt>
      <trkpt lat="44.80858" lon="4.63546">
        <ele>194.46</ele>
        <time>2018-05-29T08:22:16.000Z</time>
      </trkpt>
      <trkpt lat="44.80855" lon="4.63558">
        <ele>196.44</ele>
        <time>2018-05-29T08:22:40.000Z</time>
      </trkpt>
      <trkpt lat="44.80853" lon="4.6357">
        <ele>198.34</ele>
        <time>2018-05-29T08:22:50.000Z</time>
      </trkpt>
      <trkpt lat="44.80846" lon="4.63584">
        <ele>202.37</ele>
        <time>2018-05-29T08:23:00.000Z</time>
      </trkpt>
      <trkpt lat="44.80836" lon="4.63593">
        <ele>206.87</ele>
        <time>2018-05-29T08:23:15.000Z</time>
      </trkpt>
      <trkpt lat="44.80832" lon="4.63606">
        <ele>210.56</ele>
        <time>2018-05-29T08:23:26.000Z</time>
      </trkpt>
      <trkpt lat="44.80837" lon="4.6362">
        <ele>211.64</ele>
        <time>2018-05-29T08:23:36.000Z</time>
      </trkpt>
      <trkpt lat="44.80843" lon="4.6363">
        <ele>212.25</ele>
        <time>2018-05-29T08:23:46.000Z</time>
      </trkpt>
      <trkpt lat="44.8084" lon="4.63643">
        <ele>215.78</ele>
        <time>2018-05-29T08:24:10.000Z</time>
      </trkpt>
      <trkpt lat="44.80831" lon="4.63648">
        <ele>219.72</ele>
        <time>2018-05-29T08:24:27.000Z</time>
      </trkpt>
      <trkpt lat="44.80823" lon="4.63656">
        <ele>223.87</ele>
        <time>2018-05-29T08:24:41.000Z</time>
      </trkpt>
      <trkpt lat="44.80815" lon="4.63652">
        <ele>225.45</ele>
        <time>2018-05-29T08:24:52.000Z</time>
      </trkpt>
      <trkpt lat="44.80807" lon="4.63643">
        <ele>225.76</ele>
        <time>2018-05-29T08:25:02.000Z</time>
      </trkpt>
      <trkpt lat="44.80799" lon="4.63637">
        <ele>227.5</ele>
        <time>2018-05-29T08:25:12.000Z</time>
      </trkpt>
      <trkpt lat="44.80791" lon="4.63633">
        <ele>229.92</ele>
        <time>2018-05-29T08:25:26.000Z</time>
      </trkpt>
      <trkpt lat="44.80787" lon="4.63647">
        <ele>232.82</ele>
        <time>2018-05-29T08:26:20.000Z</time>
      </trkpt>
      <trkpt lat="44.80796" lon="4.63663">
        <ele>233.15</ele>
        <time>2018-05-29T08:26:30.000Z</time>
      </trkpt>
      <trkpt lat="44.80807" lon="4.63674">
        <ele>233.2</ele>
        <time>2018-05-29T08:26:40.000Z</time>
      </trkpt>
      <trkpt lat="44.80819" lon="4.63667">
        <ele>228.07</ele>
        <time>2018-05-29T08:26:50.000Z</time>
      </trkpt>
      <trkpt lat="44.80826" lon="4.63681">
        <ele>230.61</ele>
        <time>2018-05-29T08:27:00.000Z</time>
      </trkpt>
      <trkpt lat="44.80831" lon="4.63669">
        <ele>225.59</ele>
        <time>2018-05-29T08:27:10.000Z</time>
      </trkpt>
      <trkpt lat="44.80842" lon="4.63672">
        <ele>223.13</ele>
        <time>2018-05-29T08:27:20.000Z</time>
      </trkpt>
      <trkpt lat="44.80852" lon="4.63669">
        <ele>219.65</ele>
        <time>2018-05-29T08:27:38.000Z</time>
      </trkpt>
      <trkpt lat="44.80865" lon="4.63668">
        <ele>215.77</ele>
        <time>2018-05-29T08:27:55.000Z</time>
      </trkpt>
      <trkpt lat="44.80878" lon="4.63671">
        <ele>212.71</ele>
        <time>2018-05-29T08:28:05.000Z</time>
      </trkpt>
      <trkpt lat="44.80887" lon="4.63678">
        <ele>211.9</ele>
        <time>2018-05-29T08:28:28.000Z</time>
      </trkpt>
      <trkpt lat="44.80896" lon="4.63683">
        <ele>210.48</ele>
        <time>2018-05-29T08:28:39.000Z</time>
      </trkpt>
      <trkpt lat="44.80905" lon="4.63692">
        <ele>209.55</ele>
        <time>2018-05-29T08:28:49.000Z</time>
      </trkpt>
      <trkpt lat="44.8091" lon="4.63703">
        <ele>210.13</ele>
        <time>2018-05-29T08:29:01.000Z</time>
      </trkpt>
      <trkpt lat="44.8092" lon="4.63709">
        <ele>207.99</ele>
        <time>2018-05-29T08:29:11.000Z</time>
      </trkpt>
      <trkpt lat="44.80925" lon="4.63719">
        <ele>207.74</ele>
        <time>2018-05-29T08:29:21.000Z</time>
      </trkpt>
      <trkpt lat="44.80925" lon="4.63733">
        <ele>210.59</ele>
        <time>2018-05-29T08:29:31.000Z</time>
      </trkpt>
      <trkpt lat="44.80932" lon="4.63745">
        <ele>209.88</ele>
        <time>2018-05-29T08:29:43.000Z</time>
      </trkpt>
      <trkpt lat="44.80934" lon="4.63757">
        <ele>211.19</ele>
        <time>2018-05-29T08:29:53.000Z</time>
      </trkpt>
      <trkpt lat="44.80938" lon="4.6377">
        <ele>212.01</ele>
        <time>2018-05-29T08:30:06.000Z</time>
      </trkpt>
      <trkpt lat="44.8093" lon="4.63782">
        <ele>217.37</ele>
        <time>2018-05-29T08:30:16.000Z</time>
      </trkpt>
      <trkpt lat="44.80935" lon="4.63793">
        <ele>217.72</ele>
        <time>2018-05-29T08:30:28.000Z</time>
      </trkpt>
      <trkpt lat="44.80938" lon="4.63806">
        <ele>219</ele>
        <time>2018-05-29T08:30:40.000Z</time>
      </trkpt>
      <trkpt lat="44.8095" lon="4.63817">
        <ele>216.14</ele>
        <time>2018-05-29T08:30:50.000Z</time>
      </trkpt>
      <trkpt lat="44.8095" lon="4.63832">
        <ele>217.99</ele>
        <time>2018-05-29T08:31:04.000Z</time>
      </trkpt>
      <trkpt lat="44.80956" lon="4.63843">
        <ele>216.99</ele>
        <time>2018-05-29T08:31:14.000Z</time>
      </trkpt>
      <trkpt lat="44.80955" lon="4.63857">
        <ele>218.3</ele>
        <time>2018-05-29T08:31:28.000Z</time>
      </trkpt>
      <trkpt lat="44.80959" lon="4.63871">
        <ele>217.26</ele>
        <time>2018-05-29T08:31:38.000Z</time>
      </trkpt>
      <trkpt lat="44.80952" lon="4.6388">
        <ele>220.54</ele>
        <time>2018-05-29T08:31:48.000Z</time>
      </trkpt>
      <trkpt lat="44.80949" lon="4.63893">
        <ele>222.37</ele>
        <time>2018-05-29T08:32:07.000Z</time>
      </trkpt>
      <trkpt lat="44.80946" lon="4.63907">
        <ele>224.88</ele>
        <time>2018-05-29T08:32:17.000Z</time>
      </trkpt>
      <trkpt lat="44.80935" lon="4.63916">
        <ele>230.63</ele>
        <time>2018-05-29T08:34:21.000Z</time>
      </trkpt>
      <trkpt lat="44.80919" lon="4.63939">
        <ele>239.57</ele>
        <time>2018-05-29T08:34:31.000Z</time>
      </trkpt>
      <trkpt lat="44.80912" lon="4.63949">
        <ele>243.44</ele>
        <time>2018-05-29T08:34:41.000Z</time>
      </trkpt>
      <trkpt lat="44.80904" lon="4.63963">
        <ele>248.53</ele>
        <time>2018-05-29T08:34:58.000Z</time>
      </trkpt>
      <trkpt lat="44.80899" lon="4.63977">
        <ele>252.09</ele>
        <time>2018-05-29T08:35:08.000Z</time>
      </trkpt>
      <trkpt lat="44.809" lon="4.6399">
        <ele>253.12</ele>
        <time>2018-05-29T08:35:26.000Z</time>
      </trkpt>
      <trkpt lat="44.80904" lon="4.64002">
        <ele>253.08</ele>
        <time>2018-05-29T08:35:36.000Z</time>
      </trkpt>
      <trkpt lat="44.80922" lon="4.64011">
        <ele>246.67</ele>
        <time>2018-05-29T08:35:46.000Z</time>
      </trkpt>
      <trkpt lat="44.80931" lon="4.64017">
        <ele>244.3</ele>
        <time>2018-05-29T08:37:02.000Z</time>
      </trkpt>
      <trkpt lat="44.80942" lon="4.64018">
        <ele>239.26</ele>
        <time>2018-05-29T08:37:12.000Z</time>
      </trkpt>
      <trkpt lat="44.80952" lon="4.64021">
        <ele>235.26</ele>
        <time>2018-05-29T08:37:22.000Z</time>
      </trkpt>
      <trkpt lat="44.80949" lon="4.64035">
        <ele>239.81</ele>
        <time>2018-05-29T08:37:32.000Z</time>
      </trkpt>
      <trkpt lat="44.80951" lon="4.64048">
        <ele>241.82</ele>
        <time>2018-05-29T08:37:47.000Z</time>
      </trkpt>
      <trkpt lat="44.80943" lon="4.64059">
        <ele>249.18</ele>
        <time>2018-05-29T08:39:52.000Z</time>
      </trkpt>
      <trkpt lat="44.80926" lon="4.64063">
        <ele>259.7</ele>
        <time>2018-05-29T08:40:02.000Z</time>
      </trkpt>
      <trkpt lat="44.80915" lon="4.6406">
        <ele>264.69</ele>
        <time>2018-05-29T08:40:12.000Z</time>
      </trkpt>
      <trkpt lat="44.80914" lon="4.64074">
        <ele>268.57</ele>
        <time>2018-05-29T08:40:39.000Z</time>
      </trkpt>
      <trkpt lat="44.80913" lon="4.64087">
        <ele>271.32</ele>
        <time>2018-05-29T08:42:10.000Z</time>
      </trkpt>
      <trkpt lat="44.80906" lon="4.64095">
        <ele>276.05</ele>
        <time>2018-05-29T08:42:20.000Z</time>
      </trkpt>
      <trkpt lat="44.80897" lon="4.64084">
        <ele>278.38</ele>
        <time>2018-05-29T08:42:34.000Z</time>
      </trkpt>
      <trkpt lat="44.8089" lon="4.64078">
        <ele>280.52</ele>
        <time>2018-05-29T08:42:52.000Z</time>
      </trkpt>
      <trkpt lat="44.8088" lon="4.64081">
        <ele>284.79</ele>
        <time>2018-05-29T08:43:02.000Z</time>
      </trkpt>
      <trkpt lat="44.80878" lon="4.64093">
        <ele>288.02</ele>
        <time>2018-05-29T08:44:10.000Z</time>
      </trkpt>
      <trkpt lat="44.80878" lon="4.64116">
        <ele>290.59</ele>
        <time>2018-05-29T08:44:20.000Z</time>
      </trkpt>
      <trkpt lat="44.80875" lon="4.6413">
        <ele>293.51</ele>
        <time>2018-05-29T08:53:26.000Z</time>
      </trkpt>
      <trkpt lat="44.8087" lon="4.64169">
        <ele>298.5</ele>
        <time>2018-05-29T08:53:36.000Z</time>
      </trkpt>
      <trkpt lat="44.80841" lon="4.64222">
        <ele>309.52</ele>
        <time>2018-05-29T08:53:46.000Z</time>
      </trkpt>
      <trkpt lat="44.80841" lon="4.64235">
        <ele>308.15</ele>
        <time>2018-05-29T08:54:00.000Z</time>
      </trkpt>
      <trkpt lat="44.8084" lon="4.6425">
        <ele>306.99</ele>
        <time>2018-05-29T08:55:00.000Z</time>
      </trkpt>
      <trkpt lat="44.80811" lon="4.64307">
        <ele>314.19</ele>
        <time>2018-05-29T08:55:10.000Z</time>
      </trkpt>
      <trkpt lat="44.80802" lon="4.64322">
        <ele>316.59</ele>
        <time>2018-05-29T08:55:20.000Z</time>
      </trkpt>
      <trkpt lat="44.8079" lon="4.64337">
        <ele>320.88</ele>
        <time>2018-05-29T08:55:30.000Z</time>
      </trkpt>
      <trkpt lat="44.80789" lon="4.6435">
        <ele>321.15</ele>
        <time>2018-05-29T08:55:40.000Z</time>
      </trkpt>
      <trkpt lat="44.80785" lon="4.64369">
        <ele>323.22</ele>
        <time>2018-05-29T08:55:50.000Z</time>
      </trkpt>
      <trkpt lat="44.80788" lon="4.64383">
        <ele>323.02</ele>
        <time>2018-05-29T08:56:04.000Z</time>
      </trkpt>
      <trkpt lat="44.80786" lon="4.64397">
        <ele>324.54</ele>
        <time>2018-05-29T08:56:16.000Z</time>
      </trkpt>
      <trkpt lat="44.80787" lon="4.64417">
        <ele>325.99</ele>
        <time>2018-05-29T08:56:26.000Z</time>
      </trkpt>
      <trkpt lat="44.80796" lon="4.64423">
        <ele>323.37</ele>
        <time>2018-05-29T08:56:36.000Z</time>
      </trkpt>
      <trkpt lat="44.80804" lon="4.64444">
        <ele>323.14</ele>
        <time>2018-05-29T08:56:46.000Z</time>
      </trkpt>
      <trkpt lat="44.80808" lon="4.64457">
        <ele>323.92</ele>
        <time>2018-05-29T08:56:56.000Z</time>
      </trkpt>
      <trkpt lat="44.80813" lon="4.64475">
        <ele>325.25</ele>
        <time>2018-05-29T08:57:06.000Z</time>
      </trkpt>
      <trkpt lat="44.80822" lon="4.64488">
        <ele>324.87</ele>
        <time>2018-05-29T08:57:16.000Z</time>
      </trkpt>
      <trkpt lat="44.80828" lon="4.64477">
        <ele>320.72</ele>
        <time>2018-05-29T08:57:38.000Z</time>
      </trkpt>
      <trkpt lat="44.80822" lon="4.64487">
        <ele>324.75</ele>
        <time>2018-05-29T08:57:49.000Z</time>
      </trkpt>
      <trkpt lat="44.80815" lon="4.64478">
        <ele>325.27</ele>
        <time>2018-05-29T08:58:23.000Z</time>
      </trkpt>
      <trkpt lat="44.80796" lon="4.64482">
        <ele>332.58</ele>
        <time>2018-05-29T08:58:33.000Z</time>
      </trkpt>
      <trkpt lat="44.80787" lon="4.64479">
        <ele>335.41</ele>
        <time>2018-05-29T08:58:43.000Z</time>
      </trkpt>
      <trkpt lat="44.80776" lon="4.64477">
        <ele>338.7</ele>
        <time>2018-05-29T08:58:53.000Z</time>
      </trkpt>
      <trkpt lat="44.80766" lon="4.6448">
        <ele>342.8</ele>
        <time>2018-05-29T08:59:10.000Z</time>
      </trkpt>
      <trkpt lat="44.80756" lon="4.64477">
        <ele>345.61</ele>
        <time>2018-05-29T08:59:46.000Z</time>
      </trkpt>
      <trkpt lat="44.8074" lon="4.64476">
        <ele>350.37</ele>
        <time>2018-05-29T08:59:56.000Z</time>
      </trkpt>
      <trkpt lat="44.8073" lon="4.64472">
        <ele>352.83</ele>
        <time>2018-05-29T09:00:18.000Z</time>
      </trkpt>
      <trkpt lat="44.80721" lon="4.64466">
        <ele>354.74</ele>
        <time>2018-05-29T09:00:28.000Z</time>
      </trkpt>
      <trkpt lat="44.80709" lon="4.64467">
        <ele>358.42</ele>
        <time>2018-05-29T09:01:19.000Z</time>
      </trkpt>
      <trkpt lat="44.80698" lon="4.64464">
        <ele>361.42</ele>
        <time>2018-05-29T09:01:29.000Z</time>
      </trkpt>
      <trkpt lat="44.80689" lon="4.64466">
        <ele>364.11</ele>
        <time>2018-05-29T09:02:36.000Z</time>
      </trkpt>
      <trkpt lat="44.80672" lon="4.64466">
        <ele>369.09</ele>
        <time>2018-05-29T09:02:46.000Z</time>
      </trkpt>
      <trkpt lat="44.80663" lon="4.64479">
        <ele>371.97</ele>
        <time>2018-05-29T09:02:57.000Z</time>
      </trkpt>
      <trkpt lat="44.80654" lon="4.64489">
        <ele>375.13</ele>
        <time>2018-05-29T09:03:07.000Z</time>
      </trkpt>
      <trkpt lat="44.8065" lon="4.64504">
        <ele>377.85</ele>
        <time>2018-05-29T09:03:17.000Z</time>
      </trkpt>
      <trkpt lat="44.80659" lon="4.64502">
        <ele>375.19</ele>
        <time>2018-05-29T09:03:27.000Z</time>
      </trkpt>
      <trkpt lat="44.80664" lon="4.64515">
        <ele>376.47</ele>
        <time>2018-05-29T09:03:41.000Z</time>
      </trkpt>
      <trkpt lat="44.80662" lon="4.64527">
        <ele>380.23</ele>
        <time>2018-05-29T09:04:13.000Z</time>
      </trkpt>
      <trkpt lat="44.80662" lon="4.64541">
        <ele>384.32</ele>
        <time>2018-05-29T09:04:36.000Z</time>
      </trkpt>
      <trkpt lat="44.80654" lon="4.64535">
        <ele>383.88</ele>
        <time>2018-05-29T09:05:17.000Z</time>
      </trkpt>
      <trkpt lat="44.8064" lon="4.64537">
        <ele>386.93</ele>
        <time>2018-05-29T09:05:27.000Z</time>
      </trkpt>
      <trkpt lat="44.80633" lon="4.64527">
        <ele>386.24</ele>
        <time>2018-05-29T09:07:54.000Z</time>
      </trkpt>
      <trkpt lat="44.80631" lon="4.64515">
        <ele>384.57</ele>
        <time>2018-05-29T09:08:05.000Z</time>
      </trkpt>
      <trkpt lat="44.80624" lon="4.64503">
        <ele>385.05</ele>
        <time>2018-05-29T09:08:15.000Z</time>
      </trkpt>
      <trkpt lat="44.80626" lon="4.64489">
        <ele>383.78</ele>
        <time>2018-05-29T09:08:26.000Z</time>
      </trkpt>
      <trkpt lat="44.80622" lon="4.64475">
        <ele>384.64</ele>
        <time>2018-05-29T09:08:42.000Z</time>
      </trkpt>
      <trkpt lat="44.80616" lon="4.64462">
        <ele>386.58</ele>
        <time>2018-05-29T09:08:52.000Z</time>
      </trkpt>
      <trkpt lat="44.80605" lon="4.6445">
        <ele>389.69</ele>
        <time>2018-05-29T09:09:02.000Z</time>
      </trkpt>
      <trkpt lat="44.80596" lon="4.64442">
        <ele>391.97</ele>
        <time>2018-05-29T09:09:12.000Z</time>
      </trkpt>
      <trkpt lat="44.80589" lon="4.64433">
        <ele>393.78</ele>
        <time>2018-05-29T09:09:22.000Z</time>
      </trkpt>
      <trkpt lat="44.80582" lon="4.64425">
        <ele>395.49</ele>
        <time>2018-05-29T09:09:35.000Z</time>
      </trkpt>
      <trkpt lat="44.80573" lon="4.64426">
        <ele>396.48</ele>
        <time>2018-05-29T09:09:45.000Z</time>
      </trkpt>
      <trkpt lat="44.80564" lon="4.64419">
        <ele>397.88</ele>
        <time>2018-05-29T09:09:58.000Z</time>
      </trkpt>
      <trkpt lat="44.80554" lon="4.64418">
        <ele>398.4</ele>
        <time>2018-05-29T09:10:15.000Z</time>
      </trkpt>
      <trkpt lat="44.80546" lon="4.64413">
        <ele>399.44</ele>
        <time>2018-05-29T09:10:28.000Z</time>
      </trkpt>
      <trkpt lat="44.80537" lon="4.6441">
        <ele>400.08</ele>
        <time>2018-05-29T09:10:38.000Z</time>
      </trkpt>
      <trkpt lat="44.80527" lon="4.64412">
        <ele>399.62</ele>
        <time>2018-05-29T09:11:14.000Z</time>
      </trkpt>
      <trkpt lat="44.80519" lon="4.64403">
        <ele>401.6</ele>
        <time>2018-05-29T09:11:44.000Z</time>
      </trkpt>
      <trkpt lat="44.80509" lon="4.64392">
        <ele>404.29</ele>
        <time>2018-05-29T09:11:54.000Z</time>
      </trkpt>
      <trkpt lat="44.805" lon="4.6439">
        <ele>404.79</ele>
        <time>2018-05-29T09:12:04.000Z</time>
      </trkpt>
      <trkpt lat="44.80486" lon="4.64389">
        <ele>404.69</ele>
        <time>2018-05-29T09:12:14.000Z</time>
      </trkpt>
      <trkpt lat="44.80477" lon="4.64384">
        <ele>405.49</ele>
        <time>2018-05-29T09:12:37.000Z</time>
      </trkpt>
      <trkpt lat="44.80462" lon="4.64386">
        <ele>404.28</ele>
        <time>2018-05-29T09:12:47.000Z</time>
      </trkpt>
      <trkpt lat="44.80452" lon="4.64375">
        <ele>405.21</ele>
        <time>2018-05-29T09:12:59.000Z</time>
      </trkpt>
      <trkpt lat="44.80443" lon="4.64377">
        <ele>403.63</ele>
        <time>2018-05-29T09:13:10.000Z</time>
      </trkpt>
      <trkpt lat="44.80436" lon="4.64363">
        <ele>404.48</ele>
        <time>2018-05-29T09:13:20.000Z</time>
      </trkpt>
      <trkpt lat="44.80427" lon="4.64365">
        <ele>402.34</ele>
        <time>2018-05-29T09:13:33.000Z</time>
      </trkpt>
      <trkpt lat="44.80418" lon="4.64362">
        <ele>400.7</ele>
        <time>2018-05-29T09:13:45.000Z</time>
      </trkpt>
      <trkpt lat="44.80412" lon="4.64351">
        <ele>400.59</ele>
        <time>2018-05-29T09:14:08.000Z</time>
      </trkpt>
      <trkpt lat="44.8041" lon="4.64338">
        <ele>401.66</ele>
        <time>2018-05-29T09:14:20.000Z</time>
      </trkpt>
      <trkpt lat="44.80403" lon="4.64314">
        <ele>403.71</ele>
        <time>2018-05-29T09:14:30.000Z</time>
      </trkpt>
      <trkpt lat="44.804" lon="4.64301">
        <ele>405.24</ele>
        <time>2018-05-29T09:14:43.000Z</time>
      </trkpt>
      <trkpt lat="44.80394" lon="4.64284">
        <ele>406.77</ele>
        <time>2018-05-29T09:14:53.000Z</time>
      </trkpt>
      <trkpt lat="44.80388" lon="4.64267">
        <ele>408.44</ele>
        <time>2018-05-29T09:15:03.000Z</time>
      </trkpt>
      <trkpt lat="44.80378" lon="4.64256">
        <ele>408.15</ele>
        <time>2018-05-29T09:15:13.000Z</time>
      </trkpt>
      <trkpt lat="44.8037" lon="4.64246">
        <ele>408.3</ele>
        <time>2018-05-29T09:15:23.000Z</time>
      </trkpt>
      <trkpt lat="44.80357" lon="4.64241">
        <ele>406.38</ele>
        <time>2018-05-29T09:15:33.000Z</time>
      </trkpt>
      <trkpt lat="44.80343" lon="4.64237">
        <ele>404.39</ele>
        <time>2018-05-29T09:15:43.000Z</time>
      </trkpt>
      <trkpt lat="44.80332" lon="4.64228">
        <ele>404.12</ele>
        <time>2018-05-29T09:15:53.000Z</time>
      </trkpt>
      <trkpt lat="44.80318" lon="4.64224">
        <ele>401.94</ele>
        <time>2018-05-29T09:16:03.000Z</time>
      </trkpt>
      <trkpt lat="44.80311" lon="4.64212">
        <ele>403.21</ele>
        <time>2018-05-29T09:16:13.000Z</time>
      </trkpt>
      <trkpt lat="44.80301" lon="4.6421">
        <ele>401.26</ele>
        <time>2018-05-29T09:16:23.000Z</time>
      </trkpt>
      <trkpt lat="44.80291" lon="4.6421">
        <ele>398.58</ele>
        <time>2018-05-29T09:16:33.000Z</time>
      </trkpt>
      <trkpt lat="44.80283" lon="4.64198">
        <ele>398.89</ele>
        <time>2018-05-29T09:16:43.000Z</time>
      </trkpt>
      <trkpt lat="44.80272" lon="4.64191">
        <ele>397.13</ele>
        <time>2018-05-29T09:16:53.000Z</time>
      </trkpt>
      <trkpt lat="44.80265" lon="4.64177">
        <ele>397.15</ele>
        <time>2018-05-29T09:17:03.000Z</time>
      </trkpt>
      <trkpt lat="44.80257" lon="4.6417">
        <ele>395.83</ele>
        <time>2018-05-29T09:17:14.000Z</time>
      </trkpt>
      <trkpt lat="44.80253" lon="4.64155">
        <ele>397.77</ele>
        <time>2018-05-29T09:17:24.000Z</time>
      </trkpt>
      <trkpt lat="44.80248" lon="4.64142">
        <ele>398.97</ele>
        <time>2018-05-29T09:17:34.000Z</time>
      </trkpt>
      <trkpt lat="44.80238" lon="4.64132">
        <ele>397.61</ele>
        <time>2018-05-29T09:17:50.000Z</time>
      </trkpt>
      <trkpt lat="44.80232" lon="4.64113">
        <ele>400.07</ele>
        <time>2018-05-29T09:18:00.000Z</time>
      </trkpt>
      <trkpt lat="44.80215" lon="4.64114">
        <ele>392.25</ele>
        <time>2018-05-29T09:18:10.000Z</time>
      </trkpt>
      <trkpt lat="44.80212" lon="4.64102">
        <ele>394.13</ele>
        <time>2018-05-29T09:18:20.000Z</time>
      </trkpt>
      <trkpt lat="44.80205" lon="4.64087">
        <ele>395.11</ele>
        <time>2018-05-29T09:18:30.000Z</time>
      </trkpt>
      <trkpt lat="44.80196" lon="4.6408">
        <ele>392.75</ele>
        <time>2018-05-29T09:18:41.000Z</time>
      </trkpt>
      <trkpt lat="44.80186" lon="4.64071">
        <ele>390.82</ele>
        <time>2018-05-29T09:18:51.000Z</time>
      </trkpt>
      <trkpt lat="44.80174" lon="4.64061">
        <ele>388.36</ele>
        <time>2018-05-29T09:19:01.000Z</time>
      </trkpt>
      <trkpt lat="44.80167" lon="4.64051">
        <ele>388.38</ele>
        <time>2018-05-29T09:19:12.000Z</time>
      </trkpt>
      <trkpt lat="44.80159" lon="4.64041">
        <ele>388.06</ele>
        <time>2018-05-29T09:19:22.000Z</time>
      </trkpt>
      <trkpt lat="44.80155" lon="4.64028">
        <ele>390.21</ele>
        <time>2018-05-29T09:19:32.000Z</time>
      </trkpt>
      <trkpt lat="44.80147" lon="4.64017">
        <ele>390.68</ele>
        <time>2018-05-29T09:19:42.000Z</time>
      </trkpt>
      <trkpt lat="44.80135" lon="4.64014">
        <ele>386.58</ele>
        <time>2018-05-29T09:19:52.000Z</time>
      </trkpt>
      <trkpt lat="44.80125" lon="4.64008">
        <ele>385.1</ele>
        <time>2018-05-29T09:20:02.000Z</time>
      </trkpt>
      <trkpt lat="44.80117" lon="4.63998">
        <ele>385.72</ele>
        <time>2018-05-29T09:20:14.000Z</time>
      </trkpt>
      <trkpt lat="44.80111" lon="4.63987">
        <ele>388</ele>
        <time>2018-05-29T09:20:24.000Z</time>
      </trkpt>
      <trkpt lat="44.80102" lon="4.63982">
        <ele>387.25</ele>
        <time>2018-05-29T09:20:34.000Z</time>
      </trkpt>
      <trkpt lat="44.80091" lon="4.63981">
        <ele>384.28</ele>
        <time>2018-05-29T09:20:44.000Z</time>
      </trkpt>
      <trkpt lat="44.80085" lon="4.63994">
        <ele>377.67</ele>
        <time>2018-05-29T09:20:56.000Z</time>
      </trkpt>
      <trkpt lat="44.80072" lon="4.63984">
        <ele>378.74</ele>
        <time>2018-05-29T09:21:06.000Z</time>
      </trkpt>
      <trkpt lat="44.80058" lon="4.63994">
        <ele>372.58</ele>
        <time>2018-05-29T09:21:16.000Z</time>
      </trkpt>
      <trkpt lat="44.80049" lon="4.63998">
        <ele>370.14</ele>
        <time>2018-05-29T09:21:30.000Z</time>
      </trkpt>
      <trkpt lat="44.8004" lon="4.63999">
        <ele>368.93</ele>
        <time>2018-05-29T09:21:41.000Z</time>
      </trkpt>
      <trkpt lat="44.80025" lon="4.64003">
        <ele>366.89</ele>
        <time>2018-05-29T09:21:51.000Z</time>
      </trkpt>
      <trkpt lat="44.80014" lon="4.64005">
        <ele>365.99</ele>
        <time>2018-05-29T09:22:03.000Z</time>
      </trkpt>
      <trkpt lat="44.80002" lon="4.64016">
        <ele>364.3</ele>
        <time>2018-05-29T09:22:13.000Z</time>
      </trkpt>
      <trkpt lat="44.79997" lon="4.64004">
        <ele>365.31</ele>
        <time>2018-05-29T09:22:23.000Z</time>
      </trkpt>
      <trkpt lat="44.79989" lon="4.63994">
        <ele>365.82</ele>
        <time>2018-05-29T09:22:33.000Z</time>
      </trkpt>
      <trkpt lat="44.79978" lon="4.63996">
        <ele>364.95</ele>
        <time>2018-05-29T09:22:43.000Z</time>
      </trkpt>
      <trkpt lat="44.79968" lon="4.64">
        <ele>364.36</ele>
        <time>2018-05-29T09:22:54.000Z</time>
      </trkpt>
      <trkpt lat="44.7996" lon="4.6401">
        <ele>364.46</ele>
        <time>2018-05-29T09:23:05.000Z</time>
      </trkpt>
      <trkpt lat="44.7995" lon="4.64008">
        <ele>364.44</ele>
        <time>2018-05-29T09:23:15.000Z</time>
      </trkpt>
      <trkpt lat="44.79935" lon="4.6401">
        <ele>364.92</ele>
        <time>2018-05-29T09:23:25.000Z</time>
      </trkpt>
      <trkpt lat="44.79923" lon="4.64009">
        <ele>365.13</ele>
        <time>2018-05-29T09:23:35.000Z</time>
      </trkpt>
      <trkpt lat="44.79913" lon="4.64016">
        <ele>366.64</ele>
        <time>2018-05-29T09:23:46.000Z</time>
      </trkpt>
      <trkpt lat="44.79904" lon="4.64026">
        <ele>368.47</ele>
        <time>2018-05-29T09:24:00.000Z</time>
      </trkpt>
      <trkpt lat="44.79894" lon="4.64026">
        <ele>367.88</ele>
        <time>2018-05-29T09:24:10.000Z</time>
      </trkpt>
      <trkpt lat="44.79882" lon="4.64026">
        <ele>367.12</ele>
        <time>2018-05-29T09:24:20.000Z</time>
      </trkpt>
      <trkpt lat="44.79869" lon="4.64025">
        <ele>366.38</ele>
        <time>2018-05-29T09:24:30.000Z</time>
      </trkpt>
      <trkpt lat="44.79857" lon="4.64021">
        <ele>366.21</ele>
        <time>2018-05-29T09:24:40.000Z</time>
      </trkpt>
      <trkpt lat="44.7985" lon="4.64012">
        <ele>366.99</ele>
        <time>2018-05-29T09:24:50.000Z</time>
      </trkpt>
      <trkpt lat="44.79856" lon="4.64002">
        <ele>366.89</ele>
        <time>2018-05-29T09:25:42.000Z</time>
      </trkpt>
      <trkpt lat="44.79865" lon="4.63991">
        <ele>366.19</ele>
        <time>2018-05-29T09:25:52.000Z</time>
      </trkpt>
      <trkpt lat="44.79874" lon="4.63989">
        <ele>365.25</ele>
        <time>2018-05-29T09:26:02.000Z</time>
      </trkpt>
      <trkpt lat="44.7989" lon="4.63976">
        <ele>363.1</ele>
        <time>2018-05-29T09:26:12.000Z</time>
      </trkpt>
      <trkpt lat="44.79901" lon="4.63967">
        <ele>361.45</ele>
        <time>2018-05-29T09:26:22.000Z</time>
      </trkpt>
      <trkpt lat="44.79907" lon="4.63957">
        <ele>360.31</ele>
        <time>2018-05-29T09:26:42.000Z</time>
      </trkpt>
      <trkpt lat="44.79905" lon="4.63935">
        <ele>359.52</ele>
        <time>2018-05-29T09:26:52.000Z</time>
      </trkpt>
      <trkpt lat="44.799" lon="4.63923">
        <ele>359.82</ele>
        <time>2018-05-29T09:27:03.000Z</time>
      </trkpt>
      <trkpt lat="44.7989" lon="4.63909">
        <ele>361.17</ele>
        <time>2018-05-29T09:27:13.000Z</time>
      </trkpt>
      <trkpt lat="44.79885" lon="4.63898">
        <ele>361.87</ele>
        <time>2018-05-29T09:27:23.000Z</time>
      </trkpt>
      <trkpt lat="44.79878" lon="4.63889">
        <ele>362.73</ele>
        <time>2018-05-29T09:27:33.000Z</time>
      </trkpt>
      <trkpt lat="44.79869" lon="4.6388">
        <ele>363.6</ele>
        <time>2018-05-29T09:27:43.000Z</time>
      </trkpt>
      <trkpt lat="44.79856" lon="4.63879">
        <ele>365.4</ele>
        <time>2018-05-29T09:28:07.000Z</time>
      </trkpt>
      <trkpt lat="44.79843" lon="4.63859">
        <ele>363.93</ele>
        <time>2018-05-29T09:28:17.000Z</time>
      </trkpt>
      <trkpt lat="44.7983" lon="4.63842">
        <ele>362.16</ele>
        <time>2018-05-29T09:28:27.000Z</time>
      </trkpt>
      <trkpt lat="44.79816" lon="4.6384">
        <ele>361.53</ele>
        <time>2018-05-29T09:28:37.000Z</time>
      </trkpt>
      <trkpt lat="44.79804" lon="4.63836">
        <ele>360.88</ele>
        <time>2018-05-29T09:28:47.000Z</time>
      </trkpt>
      <trkpt lat="44.79793" lon="4.63836">
        <ele>360.47</ele>
        <time>2018-05-29T09:28:57.000Z</time>
      </trkpt>
      <trkpt lat="44.79781" lon="4.63831">
        <ele>360.07</ele>
        <time>2018-05-29T09:29:07.000Z</time>
      </trkpt>
      <trkpt lat="44.79767" lon="4.63825">
        <ele>360.03</ele>
        <time>2018-05-29T09:29:17.000Z</time>
      </trkpt>
      <trkpt lat="44.79755" lon="4.63839">
        <ele>360.15</ele>
        <time>2018-05-29T09:29:27.000Z</time>
      </trkpt>
      <trkpt lat="44.79743" lon="4.63842">
        <ele>360.56</ele>
        <time>2018-05-29T09:29:37.000Z</time>
      </trkpt>
      <trkpt lat="44.79733" lon="4.63848">
        <ele>361.37</ele>
        <time>2018-05-29T09:29:47.000Z</time>
      </trkpt>
      <trkpt lat="44.79722" lon="4.63854">
        <ele>362.33</ele>
        <time>2018-05-29T09:29:57.000Z</time>
      </trkpt>
      <trkpt lat="44.79712" lon="4.63862">
        <ele>363.75</ele>
        <time>2018-05-29T09:30:07.000Z</time>
      </trkpt>
      <trkpt lat="44.79701" lon="4.63867">
        <ele>364.57</ele>
        <time>2018-05-29T09:30:17.000Z</time>
      </trkpt>
      <trkpt lat="44.79691" lon="4.63876">
        <ele>365.93</ele>
        <time>2018-05-29T09:30:30.000Z</time>
      </trkpt>
      <trkpt lat="44.79679" lon="4.63883">
        <ele>366.73</ele>
        <time>2018-05-29T09:30:40.000Z</time>
      </trkpt>
      <trkpt lat="44.79668" lon="4.6389">
        <ele>367.31</ele>
        <time>2018-05-29T09:30:50.000Z</time>
      </trkpt>
      <trkpt lat="44.79653" lon="4.63895">
        <ele>367.47</ele>
        <time>2018-05-29T09:31:00.000Z</time>
      </trkpt>
      <trkpt lat="44.79645" lon="4.63907">
        <ele>368.14</ele>
        <time>2018-05-29T09:31:10.000Z</time>
      </trkpt>
      <trkpt lat="44.79637" lon="4.63916">
        <ele>368.25</ele>
        <time>2018-05-29T09:31:20.000Z</time>
      </trkpt>
      <trkpt lat="44.79636" lon="4.6393">
        <ele>369.51</ele>
        <time>2018-05-29T09:31:35.000Z</time>
      </trkpt>
      <trkpt lat="44.79634" lon="4.63945">
        <ele>371.65</ele>
        <time>2018-05-29T09:31:45.000Z</time>
      </trkpt>
      <trkpt lat="44.79626" lon="4.63952">
        <ele>371.92</ele>
        <time>2018-05-29T09:31:55.000Z</time>
      </trkpt>
      <trkpt lat="44.79618" lon="4.63959">
        <ele>372.34</ele>
        <time>2018-05-29T09:32:06.000Z</time>
      </trkpt>
      <trkpt lat="44.79608" lon="4.63961">
        <ele>371.92</ele>
        <time>2018-05-29T09:33:28.000Z</time>
      </trkpt>
      <trkpt lat="44.79595" lon="4.63972">
        <ele>373.48</ele>
        <time>2018-05-29T09:33:38.000Z</time>
      </trkpt>
      <trkpt lat="44.79586" lon="4.63977">
        <ele>374.67</ele>
        <time>2018-05-29T09:33:48.000Z</time>
      </trkpt>
      <trkpt lat="44.79578" lon="4.63983">
        <ele>376.23</ele>
        <time>2018-05-29T09:34:07.000Z</time>
      </trkpt>
      <trkpt lat="44.79569" lon="4.63994">
        <ele>378.86</ele>
        <time>2018-05-29T09:34:49.000Z</time>
      </trkpt>
      <trkpt lat="44.7956" lon="4.64002">
        <ele>381.19</ele>
        <time>2018-05-29T09:35:00.000Z</time>
      </trkpt>
      <trkpt lat="44.79552" lon="4.64012">
        <ele>383.31</ele>
        <time>2018-05-29T09:35:13.000Z</time>
      </trkpt>
      <trkpt lat="44.79539" lon="4.64018">
        <ele>386.89</ele>
        <time>2018-05-29T09:36:29.000Z</time>
      </trkpt>
      <trkpt lat="44.79533" lon="4.64027">
        <ele>388.79</ele>
        <time>2018-05-29T09:36:53.000Z</time>
      </trkpt>
      <trkpt lat="44.79523" lon="4.64033">
        <ele>391.64</ele>
        <time>2018-05-29T09:37:09.000Z</time>
      </trkpt>
      <trkpt lat="44.79509" lon="4.64041">
        <ele>395.94</ele>
        <time>2018-05-29T09:37:19.000Z</time>
      </trkpt>
      <trkpt lat="44.79497" lon="4.64051">
        <ele>399.9</ele>
        <time>2018-05-29T09:38:13.000Z</time>
      </trkpt>
      <trkpt lat="44.79487" lon="4.64043">
        <ele>403.12</ele>
        <time>2018-05-29T09:39:00.000Z</time>
      </trkpt>
      <trkpt lat="44.79474" lon="4.64042">
        <ele>408.25</ele>
        <time>2018-05-29T09:39:10.000Z</time>
      </trkpt>
      <trkpt lat="44.79465" lon="4.64034">
        <ele>411.24</ele>
        <time>2018-05-29T09:39:22.000Z</time>
      </trkpt>
      <trkpt lat="44.79455" lon="4.64032">
        <ele>414.94</ele>
        <time>2018-05-29T09:39:39.000Z</time>
      </trkpt>
      <trkpt lat="44.79455" lon="4.64047">
        <ele>416.44</ele>
        <time>2018-05-29T09:40:42.000Z</time>
      </trkpt>
      <trkpt lat="44.7944" lon="4.6405">
        <ele>422.18</ele>
        <time>2018-05-29T09:40:52.000Z</time>
      </trkpt>
      <trkpt lat="44.79431" lon="4.64057">
        <ele>425.67</ele>
        <time>2018-05-29T09:41:30.000Z</time>
      </trkpt>
      <trkpt lat="44.79424" lon="4.64068">
        <ele>428.45</ele>
        <time>2018-05-29T09:41:40.000Z</time>
      </trkpt>
      <trkpt lat="44.79412" lon="4.64069">
        <ele>430.87</ele>
        <time>2018-05-29T09:42:05.000Z</time>
      </trkpt>
      <trkpt lat="44.79402" lon="4.6408">
        <ele>433.05</ele>
        <time>2018-05-29T09:42:32.000Z</time>
      </trkpt>
      <trkpt lat="44.79394" lon="4.64086">
        <ele>434.31</ele>
        <time>2018-05-29T09:42:50.000Z</time>
      </trkpt>
      <trkpt lat="44.79389" lon="4.64098">
        <ele>435.74</ele>
        <time>2018-05-29T09:44:11.000Z</time>
      </trkpt>
      <trkpt lat="44.79382" lon="4.6411">
        <ele>437.47</ele>
        <time>2018-05-29T09:44:55.000Z</time>
      </trkpt>
      <trkpt lat="44.7937" lon="4.64121">
        <ele>439.74</ele>
        <time>2018-05-29T09:45:05.000Z</time>
      </trkpt>
      <trkpt lat="44.79362" lon="4.64129">
        <ele>441.38</ele>
        <time>2018-05-29T09:45:15.000Z</time>
      </trkpt>
      <trkpt lat="44.79356" lon="4.6414">
        <ele>443.41</ele>
        <time>2018-05-29T09:45:25.000Z</time>
      </trkpt>
      <trkpt lat="44.79346" lon="4.64152">
        <ele>445.86</ele>
        <time>2018-05-29T09:45:35.000Z</time>
      </trkpt>
      <trkpt lat="44.79345" lon="4.64166">
        <ele>447.64</ele>
        <time>2018-05-29T09:45:50.000Z</time>
      </trkpt>
      <trkpt lat="44.7934" lon="4.64177">
        <ele>449.5</ele>
        <time>2018-05-29T09:46:01.000Z</time>
      </trkpt>
      <trkpt lat="44.79337" lon="4.64196">
        <ele>451.58</ele>
        <time>2018-05-29T09:46:15.000Z</time>
      </trkpt>
      <trkpt lat="44.79345" lon="4.64202">
        <ele>450.24</ele>
        <time>2018-05-29T09:46:26.000Z</time>
      </trkpt>
      <trkpt lat="44.79338" lon="4.64212">
        <ele>452.27</ele>
        <time>2018-05-29T09:46:38.000Z</time>
      </trkpt>
      <trkpt lat="44.79341" lon="4.6423">
        <ele>451.71</ele>
        <time>2018-05-29T09:46:54.000Z</time>
      </trkpt>
      <trkpt lat="44.79332" lon="4.64231">
        <ele>454.28</ele>
        <time>2018-05-29T09:47:23.000Z</time>
      </trkpt>
      <trkpt lat="44.79318" lon="4.64258">
        <ele>457.96</ele>
        <time>2018-05-29T09:47:33.000Z</time>
      </trkpt>
      <trkpt lat="44.79312" lon="4.64269">
        <ele>459.35</ele>
        <time>2018-05-29T09:47:44.000Z</time>
      </trkpt>
      <trkpt lat="44.79304" lon="4.64264">
        <ele>461.09</ele>
        <time>2018-05-29T09:47:57.000Z</time>
      </trkpt>
      <trkpt lat="44.79296" lon="4.64271">
        <ele>462.75</ele>
        <time>2018-05-29T09:48:07.000Z</time>
      </trkpt>
      <trkpt lat="44.79285" lon="4.6427">
        <ele>464.51</ele>
        <time>2018-05-29T09:48:17.000Z</time>
      </trkpt>
      <trkpt lat="44.79277" lon="4.64277">
        <ele>466.06</ele>
        <time>2018-05-29T09:48:27.000Z</time>
      </trkpt>
      <trkpt lat="44.79269" lon="4.64286">
        <ele>467.82</ele>
        <time>2018-05-29T09:48:37.000Z</time>
      </trkpt>
      <trkpt lat="44.79261" lon="4.64292">
        <ele>469.44</ele>
        <time>2018-05-29T09:48:48.000Z</time>
      </trkpt>
      <trkpt lat="44.79251" lon="4.64291">
        <ele>470.66</ele>
        <time>2018-05-29T09:49:08.000Z</time>
      </trkpt>
      <trkpt lat="44.79245" lon="4.64302">
        <ele>472.65</ele>
        <time>2018-05-29T09:49:19.000Z</time>
      </trkpt>
      <trkpt lat="44.79236" lon="4.64309">
        <ele>474.45</ele>
        <time>2018-05-29T09:49:36.000Z</time>
      </trkpt>
      <trkpt lat="44.79232" lon="4.6432">
        <ele>476.37</ele>
        <time>2018-05-29T09:49:47.000Z</time>
      </trkpt>
      <trkpt lat="44.79224" lon="4.6433">
        <ele>478.62</ele>
        <time>2018-05-29T09:49:59.000Z</time>
      </trkpt>
      <trkpt lat="44.79213" lon="4.64327">
        <ele>479.63</ele>
        <time>2018-05-29T09:50:10.000Z</time>
      </trkpt>
      <trkpt lat="44.79206" lon="4.64337">
        <ele>481.97</ele>
        <time>2018-05-29T09:50:44.000Z</time>
      </trkpt>
      <trkpt lat="44.79197" lon="4.64338">
        <ele>483.22</ele>
        <time>2018-05-29T09:50:57.000Z</time>
      </trkpt>
      <trkpt lat="44.79189" lon="4.64347">
        <ele>485.54</ele>
        <time>2018-05-29T09:51:07.000Z</time>
      </trkpt>
      <trkpt lat="44.79181" lon="4.64354">
        <ele>487.58</ele>
        <time>2018-05-29T09:51:17.000Z</time>
      </trkpt>
      <trkpt lat="44.79181" lon="4.64371">
        <ele>490.4</ele>
        <time>2018-05-29T09:52:03.000Z</time>
      </trkpt>
      <trkpt lat="44.79175" lon="4.64398">
        <ele>494.5</ele>
        <time>2018-05-29T09:52:13.000Z</time>
      </trkpt>
      <trkpt lat="44.79164" lon="4.64398">
        <ele>496.32</ele>
        <time>2018-05-29T09:52:23.000Z</time>
      </trkpt>
      <trkpt lat="44.79167" lon="4.6441">
        <ele>497.37</ele>
        <time>2018-05-29T09:52:42.000Z</time>
      </trkpt>
      <trkpt lat="44.79157" lon="4.6441">
        <ele>498.7</ele>
        <time>2018-05-29T09:53:07.000Z</time>
      </trkpt>
      <trkpt lat="44.79148" lon="4.64425">
        <ele>501.07</ele>
        <time>2018-05-29T09:53:17.000Z</time>
      </trkpt>
      <trkpt lat="44.79138" lon="4.64427">
        <ele>501.77</ele>
        <time>2018-05-29T09:53:27.000Z</time>
      </trkpt>
      <trkpt lat="44.79129" lon="4.6442">
        <ele>501.12</ele>
        <time>2018-05-29T09:58:12.000Z</time>
      </trkpt>
      <trkpt lat="44.79115" lon="4.6441">
        <ele>499.42</ele>
        <time>2018-05-29T09:58:22.000Z</time>
      </trkpt>
      <trkpt lat="44.79108" lon="4.64403">
        <ele>497.7</ele>
        <time>2018-05-29T09:58:32.000Z</time>
      </trkpt>
      <trkpt lat="44.79097" lon="4.64395">
        <ele>495.4</ele>
        <time>2018-05-29T09:58:42.000Z</time>
      </trkpt>
      <trkpt lat="44.79088" lon="4.64393">
        <ele>494.31</ele>
        <time>2018-05-29T09:58:54.000Z</time>
      </trkpt>
      <trkpt lat="44.79078" lon="4.64391">
        <ele>493.23</ele>
        <time>2018-05-29T09:59:05.000Z</time>
      </trkpt>
      <trkpt lat="44.79067" lon="4.64388">
        <ele>491.62</ele>
        <time>2018-05-29T09:59:15.000Z</time>
      </trkpt>
      <trkpt lat="44.79056" lon="4.64387">
        <ele>490.05</ele>
        <time>2018-05-29T09:59:25.000Z</time>
      </trkpt>
      <trkpt lat="44.79047" lon="4.64388">
        <ele>489.42</ele>
        <time>2018-05-29T09:59:35.000Z</time>
      </trkpt>
      <trkpt lat="44.79037" lon="4.64383">
        <ele>486.67</ele>
        <time>2018-05-29T09:59:45.000Z</time>
      </trkpt>
      <trkpt lat="44.7903" lon="4.64396">
        <ele>489.82</ele>
        <time>2018-05-29T09:59:55.000Z</time>
      </trkpt>
      <trkpt lat="44.79019" lon="4.64394">
        <ele>488.05</ele>
        <time>2018-05-29T10:00:10.000Z</time>
      </trkpt>
      <trkpt lat="44.79008" lon="4.64389">
        <ele>485.19</ele>
        <time>2018-05-29T10:00:32.000Z</time>
      </trkpt>
      <trkpt lat="44.79004" lon="4.64377">
        <ele>480.97</ele>
        <time>2018-05-29T10:01:22.000Z</time>
      </trkpt>
      <trkpt lat="44.79006" lon="4.64362">
        <ele>476.44</ele>
        <time>2018-05-29T10:01:33.000Z</time>
      </trkpt>
      <trkpt lat="44.79022" lon="4.64354">
        <ele>475.43</ele>
        <time>2018-05-29T10:01:43.000Z</time>
      </trkpt>
      <trkpt lat="44.79032" lon="4.64355">
        <ele>476.9</ele>
        <time>2018-05-29T10:01:53.000Z</time>
      </trkpt>
      <trkpt lat="44.79037" lon="4.64344">
        <ele>474.29</ele>
        <time>2018-05-29T10:02:09.000Z</time>
      </trkpt>
      <trkpt lat="44.79047" lon="4.64344">
        <ele>475.45</ele>
        <time>2018-05-29T10:02:19.000Z</time>
      </trkpt>
      <trkpt lat="44.79061" lon="4.6435">
        <ele>479.45</ele>
        <time>2018-05-29T10:02:29.000Z</time>
      </trkpt>
      <trkpt lat="44.79075" lon="4.64352">
        <ele>481.89</ele>
        <time>2018-05-29T10:02:39.000Z</time>
      </trkpt>
      <trkpt lat="44.79083" lon="4.64344">
        <ele>480.27</ele>
        <time>2018-05-29T10:02:50.000Z</time>
      </trkpt>
      <trkpt lat="44.79089" lon="4.64334">
        <ele>477.7</ele>
        <time>2018-05-29T10:03:00.000Z</time>
      </trkpt>
      <trkpt lat="44.79098" lon="4.64331">
        <ele>477.86</ele>
        <time>2018-05-29T10:03:13.000Z</time>
      </trkpt>
      <trkpt lat="44.79103" lon="4.6432">
        <ele>474.56</ele>
        <time>2018-05-29T10:03:23.000Z</time>
      </trkpt>
      <trkpt lat="44.79104" lon="4.64307">
        <ele>469.7</ele>
        <time>2018-05-29T10:05:35.000Z</time>
      </trkpt>
      <trkpt lat="44.79093" lon="4.64303">
        <ele>466.75</ele>
        <time>2018-05-29T10:06:07.000Z</time>
      </trkpt>
      <trkpt lat="44.79077" lon="4.64301">
        <ele>464.32</ele>
        <time>2018-05-29T10:06:17.000Z</time>
      </trkpt>
      <trkpt lat="44.79065" lon="4.64306">
        <ele>465.01</ele>
        <time>2018-05-29T10:06:27.000Z</time>
      </trkpt>
      <trkpt lat="44.79054" lon="4.64307">
        <ele>463.97</ele>
        <time>2018-05-29T10:06:37.000Z</time>
      </trkpt>
      <trkpt lat="44.79043" lon="4.64305">
        <ele>461.94</ele>
        <time>2018-05-29T10:07:12.000Z</time>
      </trkpt>
      <trkpt lat="44.79034" lon="4.64306">
        <ele>461.42</ele>
        <time>2018-05-29T10:07:23.000Z</time>
      </trkpt>
      <trkpt lat="44.79025" lon="4.64302">
        <ele>459.13</ele>
        <time>2018-05-29T10:07:35.000Z</time>
      </trkpt>
      <trkpt lat="44.79014" lon="4.64299">
        <ele>457.6</ele>
        <time>2018-05-29T10:07:50.000Z</time>
      </trkpt>
      <trkpt lat="44.79004" lon="4.64301">
        <ele>457.68</ele>
        <time>2018-05-29T10:08:00.000Z</time>
      </trkpt>
      <trkpt lat="44.78991" lon="4.64301">
        <ele>457.71</ele>
        <time>2018-05-29T10:08:10.000Z</time>
      </trkpt>
      <trkpt lat="44.78981" lon="4.64305">
        <ele>458.89</ele>
        <time>2018-05-29T10:08:21.000Z</time>
      </trkpt>
      <trkpt lat="44.78991" lon="4.643">
        <ele>457.6</ele>
        <time>2018-05-29T10:08:50.000Z</time>
      </trkpt>
      <trkpt lat="44.78999" lon="4.64291">
        <ele>455</ele>
        <time>2018-05-29T10:09:00.000Z</time>
      </trkpt>
      <trkpt lat="44.79008" lon="4.64287">
        <ele>453.82</ele>
        <time>2018-05-29T10:09:10.000Z</time>
      </trkpt>
      <trkpt lat="44.79017" lon="4.6428">
        <ele>452</ele>
        <time>2018-05-29T10:09:27.000Z</time>
      </trkpt>
      <trkpt lat="44.79026" lon="4.64273">
        <ele>450.38</ele>
        <time>2018-05-29T10:09:37.000Z</time>
      </trkpt>
      <trkpt lat="44.79036" lon="4.64275">
        <ele>451.19</ele>
        <time>2018-05-29T10:09:50.000Z</time>
      </trkpt>
      <trkpt lat="44.79032" lon="4.64263">
        <ele>447.86</ele>
        <time>2018-05-29T10:10:04.000Z</time>
      </trkpt>
      <trkpt lat="44.79023" lon="4.64266">
        <ele>448.65</ele>
        <time>2018-05-29T10:10:17.000Z</time>
      </trkpt>
      <trkpt lat="44.79015" lon="4.64259">
        <ele>447.29</ele>
        <time>2018-05-29T10:10:28.000Z</time>
      </trkpt>
      <trkpt lat="44.79001" lon="4.64262">
        <ele>448.57</ele>
        <time>2018-05-29T10:10:38.000Z</time>
      </trkpt>
      <trkpt lat="44.78992" lon="4.64259">
        <ele>449.1</ele>
        <time>2018-05-29T10:10:51.000Z</time>
      </trkpt>
      <trkpt lat="44.78983" lon="4.64259">
        <ele>450.35</ele>
        <time>2018-05-29T10:11:01.000Z</time>
      </trkpt>
      <trkpt lat="44.78976" lon="4.6427">
        <ele>452.7</ele>
        <time>2018-05-29T10:11:11.000Z</time>
      </trkpt>
      <trkpt lat="44.78967" lon="4.64273">
        <ele>454.45</ele>
        <time>2018-05-29T10:11:25.000Z</time>
      </trkpt>
      <trkpt lat="44.78958" lon="4.64282">
        <ele>456.88</ele>
        <time>2018-05-29T10:11:41.000Z</time>
      </trkpt>
      <trkpt lat="44.78967" lon="4.64281">
        <ele>455.5</ele>
        <time>2018-05-29T10:12:37.000Z</time>
      </trkpt>
      <trkpt lat="44.78964" lon="4.64255">
        <ele>453.52</ele>
        <time>2018-05-29T10:12:47.000Z</time>
      </trkpt>
      <trkpt lat="44.78976" lon="4.6425">
        <ele>450.59</ele>
        <time>2018-05-29T10:12:57.000Z</time>
      </trkpt>
      <trkpt lat="44.78986" lon="4.64241">
        <ele>448.35</ele>
        <time>2018-05-29T10:13:07.000Z</time>
      </trkpt>
      <trkpt lat="44.7899" lon="4.64229">
        <ele>447.18</ele>
        <time>2018-05-29T10:13:35.000Z</time>
      </trkpt>
      <trkpt lat="44.79001" lon="4.64225">
        <ele>445.32</ele>
        <time>2018-05-29T10:14:10.000Z</time>
      </trkpt>
      <trkpt lat="44.79013" lon="4.64204">
        <ele>443.56</ele>
        <time>2018-05-29T10:14:20.000Z</time>
      </trkpt>
      <trkpt lat="44.79022" lon="4.64196">
        <ele>442.58</ele>
        <time>2018-05-29T10:14:30.000Z</time>
      </trkpt>
      <trkpt lat="44.79031" lon="4.64192">
        <ele>441.55</ele>
        <time>2018-05-29T10:14:41.000Z</time>
      </trkpt>
      <trkpt lat="44.79038" lon="4.64183">
        <ele>441.13</ele>
        <time>2018-05-29T10:14:51.000Z</time>
      </trkpt>
      <trkpt lat="44.79046" lon="4.64175">
        <ele>440.63</ele>
        <time>2018-05-29T10:15:07.000Z</time>
      </trkpt>
      <trkpt lat="44.79051" lon="4.64164">
        <ele>441.06</ele>
        <time>2018-05-29T10:15:17.000Z</time>
      </trkpt>
      <trkpt lat="44.79059" lon="4.64158">
        <ele>440.89</ele>
        <time>2018-05-29T10:15:27.000Z</time>
      </trkpt>
      <trkpt lat="44.79066" lon="4.64147">
        <ele>442.26</ele>
        <time>2018-05-29T10:15:43.000Z</time>
      </trkpt>
      <trkpt lat="44.79074" lon="4.6414">
        <ele>442.78</ele>
        <time>2018-05-29T10:15:55.000Z</time>
      </trkpt>
      <trkpt lat="44.79088" lon="4.64138">
        <ele>441.11</ele>
        <time>2018-05-29T10:16:05.000Z</time>
      </trkpt>
      <trkpt lat="44.79098" lon="4.64128">
        <ele>441.76</ele>
        <time>2018-05-29T10:16:15.000Z</time>
      </trkpt>
      <trkpt lat="44.79107" lon="4.64117">
        <ele>442.54</ele>
        <time>2018-05-29T10:16:25.000Z</time>
      </trkpt>
      <trkpt lat="44.79115" lon="4.64125">
        <ele>438.58</ele>
        <time>2018-05-29T10:16:36.000Z</time>
      </trkpt>
      <trkpt lat="44.79127" lon="4.64097">
        <ele>441.1</ele>
        <time>2018-05-29T10:16:46.000Z</time>
      </trkpt>
      <trkpt lat="44.7913" lon="4.64085">
        <ele>442.17</ele>
        <time>2018-05-29T10:16:57.000Z</time>
      </trkpt>
      <trkpt lat="44.79132" lon="4.64072">
        <ele>443.46</ele>
        <time>2018-05-29T10:17:08.000Z</time>
      </trkpt>
      <trkpt lat="44.79134" lon="4.64058">
        <ele>445.34</ele>
        <time>2018-05-29T10:17:40.000Z</time>
      </trkpt>
      <trkpt lat="44.79143" lon="4.64025">
        <ele>448.17</ele>
        <time>2018-05-29T10:17:50.000Z</time>
      </trkpt>
      <trkpt lat="44.79147" lon="4.64009">
        <ele>448.84</ele>
        <time>2018-05-29T10:18:00.000Z</time>
      </trkpt>
      <trkpt lat="44.79154" lon="4.64001">
        <ele>446.68</ele>
        <time>2018-05-29T10:18:11.000Z</time>
      </trkpt>
      <trkpt lat="44.7916" lon="4.63989">
        <ele>444.65</ele>
        <time>2018-05-29T10:18:33.000Z</time>
      </trkpt>
      <trkpt lat="44.7916" lon="4.63965">
        <ele>444.58</ele>
        <time>2018-05-29T10:18:43.000Z</time>
      </trkpt>
      <trkpt lat="44.79159" lon="4.63951">
        <ele>444.1</ele>
        <time>2018-05-29T10:18:53.000Z</time>
      </trkpt>
      <trkpt lat="44.79155" lon="4.63937">
        <ele>444.26</ele>
        <time>2018-05-29T10:19:43.000Z</time>
      </trkpt>
      <trkpt lat="44.79126" lon="4.63924">
        <ele>449.7</ele>
        <time>2018-05-29T10:19:53.000Z</time>
      </trkpt>
      <trkpt lat="44.79119" lon="4.63932">
        <ele>453.17</ele>
        <time>2018-05-29T10:20:08.000Z</time>
      </trkpt>
      <trkpt lat="44.79108" lon="4.6392">
        <ele>453.21</ele>
        <time>2018-05-29T10:20:18.000Z</time>
      </trkpt>
      <trkpt lat="44.79095" lon="4.63924">
        <ele>456.6</ele>
        <time>2018-05-29T10:20:28.000Z</time>
      </trkpt>
      <trkpt lat="44.79086" lon="4.63916">
        <ele>456.39</ele>
        <time>2018-05-29T10:20:41.000Z</time>
      </trkpt>
      <trkpt lat="44.79077" lon="4.63913">
        <ele>457.03</ele>
        <time>2018-05-29T10:20:57.000Z</time>
      </trkpt>
      <trkpt lat="44.79064" lon="4.63914">
        <ele>459.02</ele>
        <time>2018-05-29T10:21:07.000Z</time>
      </trkpt>
      <trkpt lat="44.79054" lon="4.6391">
        <ele>459.06</ele>
        <time>2018-05-29T10:21:18.000Z</time>
      </trkpt>
      <trkpt lat="44.79045" lon="4.63916">
        <ele>461.24</ele>
        <time>2018-05-29T10:21:32.000Z</time>
      </trkpt>
      <trkpt lat="44.79036" lon="4.63909">
        <ele>460.51</ele>
        <time>2018-05-29T10:21:46.000Z</time>
      </trkpt>
      <trkpt lat="44.79022" lon="4.63911">
        <ele>461.6</ele>
        <time>2018-05-29T10:22:26.000Z</time>
      </trkpt>
      <trkpt lat="44.79005" lon="4.63916">
        <ele>462.81</ele>
        <time>2018-05-29T10:22:36.000Z</time>
      </trkpt>
      <trkpt lat="44.78998" lon="4.63925">
        <ele>464.42</ele>
        <time>2018-05-29T10:22:47.000Z</time>
      </trkpt>
      <trkpt lat="44.78999" lon="4.63939">
        <ele>466.92</ele>
        <time>2018-05-29T10:22:58.000Z</time>
      </trkpt>
      <trkpt lat="44.78992" lon="4.63948">
        <ele>468.18</ele>
        <time>2018-05-29T10:23:57.000Z</time>
      </trkpt>
      <trkpt lat="44.78977" lon="4.63946">
        <ele>466.86</ele>
        <time>2018-05-29T10:24:07.000Z</time>
      </trkpt>
      <trkpt lat="44.78968" lon="4.63951">
        <ele>466.85</ele>
        <time>2018-05-29T10:24:19.000Z</time>
      </trkpt>
      <trkpt lat="44.78956" lon="4.63952">
        <ele>465.81</ele>
        <time>2018-05-29T10:24:29.000Z</time>
      </trkpt>
      <trkpt lat="44.78949" lon="4.63959">
        <ele>466.31</ele>
        <time>2018-05-29T10:24:44.000Z</time>
      </trkpt>
      <trkpt lat="44.7894" lon="4.63963">
        <ele>466.26</ele>
        <time>2018-05-29T10:25:01.000Z</time>
      </trkpt>
      <trkpt lat="44.78937" lon="4.63977">
        <ele>468.26</ele>
        <time>2018-05-29T10:25:19.000Z</time>
      </trkpt>
      <trkpt lat="44.78928" lon="4.63976">
        <ele>467.61</ele>
        <time>2018-05-29T10:25:36.000Z</time>
      </trkpt>
      <trkpt lat="44.78918" lon="4.63975">
        <ele>467.07</ele>
        <time>2018-05-29T10:25:49.000Z</time>
      </trkpt>
      <trkpt lat="44.78906" lon="4.63976">
        <ele>466.97</ele>
        <time>2018-05-29T10:25:59.000Z</time>
      </trkpt>
      <trkpt lat="44.78895" lon="4.63981">
        <ele>467.59</ele>
        <time>2018-05-29T10:26:09.000Z</time>
      </trkpt>
      <trkpt lat="44.78886" lon="4.63984">
        <ele>467.81</ele>
        <time>2018-05-29T10:26:20.000Z</time>
      </trkpt>
      <trkpt lat="44.78879" lon="4.63993">
        <ele>469.29</ele>
        <time>2018-05-29T10:27:22.000Z</time>
      </trkpt>
      <trkpt lat="44.78867" lon="4.63998">
        <ele>470.05</ele>
        <time>2018-05-29T10:27:32.000Z</time>
      </trkpt>
      <trkpt lat="44.78853" lon="4.63997">
        <ele>470.31</ele>
        <time>2018-05-29T10:27:42.000Z</time>
      </trkpt>
      <trkpt lat="44.78843" lon="4.63999">
        <ele>471.07</ele>
        <time>2018-05-29T10:27:52.000Z</time>
      </trkpt>
      <trkpt lat="44.7883" lon="4.64">
        <ele>472.35</ele>
        <time>2018-05-29T10:28:02.000Z</time>
      </trkpt>
      <trkpt lat="44.78818" lon="4.63999">
        <ele>473.47</ele>
        <time>2018-05-29T10:28:12.000Z</time>
      </trkpt>
      <trkpt lat="44.78804" lon="4.6399">
        <ele>474.29</ele>
        <time>2018-05-29T10:28:22.000Z</time>
      </trkpt>
      <trkpt lat="44.78795" lon="4.63987">
        <ele>475.6</ele>
        <time>2018-05-29T10:28:33.000Z</time>
      </trkpt>
      <trkpt lat="44.78791" lon="4.63975">
        <ele>475.01</ele>
        <time>2018-05-29T10:28:46.000Z</time>
      </trkpt>
      <trkpt lat="44.78794" lon="4.63958">
        <ele>472.59</ele>
        <time>2018-05-29T10:28:56.000Z</time>
      </trkpt>
      <trkpt lat="44.78796" lon="4.63944">
        <ele>470.85</ele>
        <time>2018-05-29T10:29:06.000Z</time>
      </trkpt>
      <trkpt lat="44.78789" lon="4.63926">
        <ele>471.3</ele>
        <time>2018-05-29T10:29:16.000Z</time>
      </trkpt>
      <trkpt lat="44.78792" lon="4.63912">
        <ele>469.49</ele>
        <time>2018-05-29T10:29:31.000Z</time>
      </trkpt>
      <trkpt lat="44.78784" lon="4.63893">
        <ele>470.89</ele>
        <time>2018-05-29T10:29:41.000Z</time>
      </trkpt>
      <trkpt lat="44.7878" lon="4.63875">
        <ele>470.88</ele>
        <time>2018-05-29T10:29:51.000Z</time>
      </trkpt>
      <trkpt lat="44.78777" lon="4.63859">
        <ele>470.54</ele>
        <time>2018-05-29T10:30:01.000Z</time>
      </trkpt>
      <trkpt lat="44.78785" lon="4.63841">
        <ele>467.89</ele>
        <time>2018-05-29T10:30:11.000Z</time>
      </trkpt>
      <trkpt lat="44.78781" lon="4.63827">
        <ele>467.41</ele>
        <time>2018-05-29T10:30:21.000Z</time>
      </trkpt>
      <trkpt lat="44.78772" lon="4.63813">
        <ele>467.34</ele>
        <time>2018-05-29T10:30:31.000Z</time>
      </trkpt>
      <trkpt lat="44.78782" lon="4.63799">
        <ele>464.57</ele>
        <time>2018-05-29T10:30:41.000Z</time>
      </trkpt>
      <trkpt lat="44.78778" lon="4.63786">
        <ele>463.63</ele>
        <time>2018-05-29T10:30:51.000Z</time>
      </trkpt>
      <trkpt lat="44.78786" lon="4.63789">
        <ele>462.99</ele>
        <time>2018-05-29T10:31:01.000Z</time>
      </trkpt>
      <trkpt lat="44.78798" lon="4.63793">
        <ele>461.88</ele>
        <time>2018-05-29T10:31:12.000Z</time>
      </trkpt>
      <trkpt lat="44.78804" lon="4.63783">
        <ele>460.14</ele>
        <time>2018-05-29T10:31:28.000Z</time>
      </trkpt>
      <trkpt lat="44.78816" lon="4.63794">
        <ele>459.09</ele>
        <time>2018-05-29T10:31:42.000Z</time>
      </trkpt>
      <trkpt lat="44.78818" lon="4.63781">
        <ele>457.86</ele>
        <time>2018-05-29T10:32:03.000Z</time>
      </trkpt>
      <trkpt lat="44.78826" lon="4.63771">
        <ele>455.85</ele>
        <time>2018-05-29T10:32:20.000Z</time>
      </trkpt>
      <trkpt lat="44.78822" lon="4.63759">
        <ele>455.57</ele>
        <time>2018-05-29T10:32:53.000Z</time>
      </trkpt>
      <trkpt lat="44.78823" lon="4.63747">
        <ele>454.24</ele>
        <time>2018-05-29T10:34:06.000Z</time>
      </trkpt>
      <trkpt lat="44.78825" lon="4.63734">
        <ele>452.56</ele>
        <time>2018-05-29T10:34:19.000Z</time>
      </trkpt>
      <trkpt lat="44.78829" lon="4.63722">
        <ele>450.75</ele>
        <time>2018-05-29T10:35:08.000Z</time>
      </trkpt>
      <trkpt lat="44.78832" lon="4.6371">
        <ele>449.03</ele>
        <time>2018-05-29T10:36:33.000Z</time>
      </trkpt>
      <trkpt lat="44.78838" lon="4.63697">
        <ele>446.94</ele>
        <time>2018-05-29T10:37:01.000Z</time>
      </trkpt>
      <trkpt lat="44.78842" lon="4.63685">
        <ele>445.15</ele>
        <time>2018-05-29T10:37:12.000Z</time>
      </trkpt>
      <trkpt lat="44.78846" lon="4.6367">
        <ele>443.46</ele>
        <time>2018-05-29T10:37:22.000Z</time>
      </trkpt>
      <trkpt lat="44.78852" lon="4.63649">
        <ele>441.39</ele>
        <time>2018-05-29T10:37:32.000Z</time>
      </trkpt>
      <trkpt lat="44.78866" lon="4.63649">
        <ele>440.66</ele>
        <time>2018-05-29T10:37:42.000Z</time>
      </trkpt>
      <trkpt lat="44.7887" lon="4.63634">
        <ele>439.92</ele>
        <time>2018-05-29T10:37:52.000Z</time>
      </trkpt>
      <trkpt lat="44.78876" lon="4.63624">
        <ele>439.49</ele>
        <time>2018-05-29T10:38:03.000Z</time>
      </trkpt>
      <trkpt lat="44.78877" lon="4.63611">
        <ele>439.13</ele>
        <time>2018-05-29T10:38:18.000Z</time>
      </trkpt>
      <trkpt lat="44.7889" lon="4.63611">
        <ele>438.98</ele>
        <time>2018-05-29T11:03:54.000Z</time>
      </trkpt>
      <trkpt lat="44.78885" lon="4.63621">
        <ele>439.21</ele>
        <time>2018-05-29T11:04:07.000Z</time>
      </trkpt>
      <trkpt lat="44.78892" lon="4.6363">
        <ele>438.78</ele>
        <time>2018-05-29T11:04:34.000Z</time>
      </trkpt>
      <trkpt lat="44.789" lon="4.63622">
        <ele>438.33</ele>
        <time>2018-05-29T11:37:45.000Z</time>
      </trkpt>
      <trkpt lat="44.78891" lon="4.63618">
        <ele>438.95</ele>
        <time>2018-05-29T11:38:00.000Z</time>
      </trkpt>
      <trkpt lat="44.78881" lon="4.63619">
        <ele>439.27</ele>
        <time>2018-05-29T11:41:28.000Z</time>
      </trkpt>
      <trkpt lat="44.78885" lon="4.63606">
        <ele>438.97</ele>
        <time>2018-05-29T11:45:34.000Z</time>
      </trkpt>
      <trkpt lat="44.78888" lon="4.63587">
        <ele>438.22</ele>
        <time>2018-05-29T11:45:44.000Z</time>
      </trkpt>
      <trkpt lat="44.78895" lon="4.63578">
        <ele>437.71</ele>
        <time>2018-05-29T11:45:57.000Z</time>
      </trkpt>
      <trkpt lat="44.78901" lon="4.63569">
        <ele>436.9</ele>
        <time>2018-05-29T11:46:10.000Z</time>
      </trkpt>
      <trkpt lat="44.78911" lon="4.63559">
        <ele>435.76</ele>
        <time>2018-05-29T11:46:20.000Z</time>
      </trkpt>
      <trkpt lat="44.78911" lon="4.63546">
        <ele>434.3</ele>
        <time>2018-05-29T11:46:34.000Z</time>
      </trkpt>
      <trkpt lat="44.78908" lon="4.63533">
        <ele>432.75</ele>
        <time>2018-05-29T11:46:44.000Z</time>
      </trkpt>
      <trkpt lat="44.78917" lon="4.63526">
        <ele>431.59</ele>
        <time>2018-05-29T11:47:02.000Z</time>
      </trkpt>
      <trkpt lat="44.78917" lon="4.63512">
        <ele>429.63</ele>
        <time>2018-05-29T11:47:18.000Z</time>
      </trkpt>
      <trkpt lat="44.78928" lon="4.63503">
        <ele>428.37</ele>
        <time>2018-05-29T11:47:28.000Z</time>
      </trkpt>
      <trkpt lat="44.7894" lon="4.63493">
        <ele>427.22</ele>
        <time>2018-05-29T11:48:09.000Z</time>
      </trkpt>
      <trkpt lat="44.78955" lon="4.63474">
        <ele>424.62</ele>
        <time>2018-05-29T11:48:19.000Z</time>
      </trkpt>
      <trkpt lat="44.78972" lon="4.63461">
        <ele>423.12</ele>
        <time>2018-05-29T11:48:29.000Z</time>
      </trkpt>
      <trkpt lat="44.78987" lon="4.63446">
        <ele>420.75</ele>
        <time>2018-05-29T11:48:39.000Z</time>
      </trkpt>
      <trkpt lat="44.79002" lon="4.63435">
        <ele>417.94</ele>
        <time>2018-05-29T11:48:49.000Z</time>
      </trkpt>
      <trkpt lat="44.79" lon="4.63422">
        <ele>416.53</ele>
        <time>2018-05-29T11:49:08.000Z</time>
      </trkpt>
      <trkpt lat="44.7901" lon="4.63426">
        <ele>415.49</ele>
        <time>2018-05-29T11:49:26.000Z</time>
      </trkpt>
      <trkpt lat="44.79016" lon="4.63437">
        <ele>415.7</ele>
        <time>2018-05-29T11:49:37.000Z</time>
      </trkpt>
      <trkpt lat="44.79021" lon="4.6345">
        <ele>415.88</ele>
        <time>2018-05-29T11:49:48.000Z</time>
      </trkpt>
      <trkpt lat="44.79022" lon="4.63463">
        <ele>417.49</ele>
        <time>2018-05-29T11:50:00.000Z</time>
      </trkpt>
      <trkpt lat="44.79022" lon="4.63476">
        <ele>418.88</ele>
        <time>2018-05-29T11:50:11.000Z</time>
      </trkpt>
      <trkpt lat="44.7902" lon="4.63491">
        <ele>420.36</ele>
        <time>2018-05-29T11:50:21.000Z</time>
      </trkpt>
      <trkpt lat="44.79012" lon="4.63501">
        <ele>422.64</ele>
        <time>2018-05-29T11:50:31.000Z</time>
      </trkpt>
      <trkpt lat="44.79001" lon="4.63521">
        <ele>424.2</ele>
        <time>2018-05-29T11:50:41.000Z</time>
      </trkpt>
      <trkpt lat="44.79009" lon="4.63533">
        <ele>421.59</ele>
        <time>2018-05-29T11:50:51.000Z</time>
      </trkpt>
      <trkpt lat="44.79018" lon="4.63543">
        <ele>418.19</ele>
        <time>2018-05-29T11:51:01.000Z</time>
      </trkpt>
      <trkpt lat="44.79025" lon="4.63555">
        <ele>414.77</ele>
        <time>2018-05-29T11:51:11.000Z</time>
      </trkpt>
      <trkpt lat="44.79027" lon="4.63568">
        <ele>412.56</ele>
        <time>2018-05-29T11:51:21.000Z</time>
      </trkpt>
      <trkpt lat="44.79013" lon="4.63586">
        <ele>414.28</ele>
        <time>2018-05-29T11:51:31.000Z</time>
      </trkpt>
      <trkpt lat="44.79005" lon="4.63598">
        <ele>415.06</ele>
        <time>2018-05-29T11:51:41.000Z</time>
      </trkpt>
      <trkpt lat="44.79002" lon="4.63611">
        <ele>413.76</ele>
        <time>2018-05-29T11:51:51.000Z</time>
      </trkpt>
      <trkpt lat="44.78999" lon="4.63632">
        <ele>411.76</ele>
        <time>2018-05-29T11:52:01.000Z</time>
      </trkpt>
      <trkpt lat="44.78998" lon="4.63647">
        <ele>410.31</ele>
        <time>2018-05-29T11:52:16.000Z</time>
      </trkpt>
      <trkpt lat="44.79014" lon="4.63644">
        <ele>406.35</ele>
        <time>2018-05-29T11:52:26.000Z</time>
      </trkpt>
      <trkpt lat="44.79024" lon="4.63639">
        <ele>404.47</ele>
        <time>2018-05-29T11:52:50.000Z</time>
      </trkpt>
      <trkpt lat="44.79034" lon="4.63632">
        <ele>402.68</ele>
        <time>2018-05-29T11:53:00.000Z</time>
      </trkpt>
      <trkpt lat="44.79044" lon="4.63628">
        <ele>400.68</ele>
        <time>2018-05-29T11:53:28.000Z</time>
      </trkpt>
      <trkpt lat="44.79057" lon="4.63617">
        <ele>398.56</ele>
        <time>2018-05-29T11:53:38.000Z</time>
      </trkpt>
      <trkpt lat="44.79079" lon="4.63609">
        <ele>393.9</ele>
        <time>2018-05-29T11:53:48.000Z</time>
      </trkpt>
      <trkpt lat="44.79089" lon="4.636">
        <ele>392.32</ele>
        <time>2018-05-29T11:53:58.000Z</time>
      </trkpt>
      <trkpt lat="44.79093" lon="4.63588">
        <ele>392.08</ele>
        <time>2018-05-29T11:54:08.000Z</time>
      </trkpt>
      <trkpt lat="44.79104" lon="4.63581">
        <ele>389.56</ele>
        <time>2018-05-29T11:54:22.000Z</time>
      </trkpt>
      <trkpt lat="44.79114" lon="4.63579">
        <ele>386.52</ele>
        <time>2018-05-29T11:54:32.000Z</time>
      </trkpt>
      <trkpt lat="44.79118" lon="4.63567">
        <ele>386.22</ele>
        <time>2018-05-29T11:54:45.000Z</time>
      </trkpt>
      <trkpt lat="44.7913" lon="4.63557">
        <ele>383.44</ele>
        <time>2018-05-29T11:54:55.000Z</time>
      </trkpt>
      <trkpt lat="44.7914" lon="4.63561">
        <ele>380.55</ele>
        <time>2018-05-29T11:55:11.000Z</time>
      </trkpt>
      <trkpt lat="44.79154" lon="4.63563">
        <ele>377.94</ele>
        <time>2018-05-29T11:55:21.000Z</time>
      </trkpt>
      <trkpt lat="44.79163" lon="4.63566">
        <ele>376.83</ele>
        <time>2018-05-29T11:55:36.000Z</time>
      </trkpt>
      <trkpt lat="44.79175" lon="4.63562">
        <ele>376.82</ele>
        <time>2018-05-29T11:55:46.000Z</time>
      </trkpt>
      <trkpt lat="44.79167" lon="4.63574">
        <ele>376.32</ele>
        <time>2018-05-29T11:57:15.000Z</time>
      </trkpt>
      <trkpt lat="44.79159" lon="4.63598">
        <ele>376.33</ele>
        <time>2018-05-29T11:57:25.000Z</time>
      </trkpt>
      <trkpt lat="44.79151" lon="4.63611">
        <ele>377.13</ele>
        <time>2018-05-29T11:57:35.000Z</time>
      </trkpt>
      <trkpt lat="44.79146" lon="4.63634">
        <ele>378.1</ele>
        <time>2018-05-29T11:57:45.000Z</time>
      </trkpt>
      <trkpt lat="44.79137" lon="4.63651">
        <ele>379.9</ele>
        <time>2018-05-29T11:57:55.000Z</time>
      </trkpt>
      <trkpt lat="44.79152" lon="4.63643">
        <ele>377.34</ele>
        <time>2018-05-29T11:58:05.000Z</time>
      </trkpt>
      <trkpt lat="44.79161" lon="4.63641">
        <ele>376.28</ele>
        <time>2018-05-29T11:58:15.000Z</time>
      </trkpt>
      <trkpt lat="44.79174" lon="4.63637">
        <ele>375.26</ele>
        <time>2018-05-29T11:58:25.000Z</time>
      </trkpt>
      <trkpt lat="44.79184" lon="4.63635">
        <ele>374.92</ele>
        <time>2018-05-29T11:58:35.000Z</time>
      </trkpt>
      <trkpt lat="44.79194" lon="4.63633">
        <ele>374.98</ele>
        <time>2018-05-29T11:58:47.000Z</time>
      </trkpt>
      <trkpt lat="44.79201" lon="4.63624">
        <ele>375.51</ele>
        <time>2018-05-29T11:59:04.000Z</time>
      </trkpt>
      <trkpt lat="44.7921" lon="4.63633">
        <ele>375.65</ele>
        <time>2018-05-29T11:59:17.000Z</time>
      </trkpt>
      <trkpt lat="44.79221" lon="4.63629">
        <ele>376.63</ele>
        <time>2018-05-29T11:59:27.000Z</time>
      </trkpt>
      <trkpt lat="44.79231" lon="4.63629">
        <ele>377.57</ele>
        <time>2018-05-29T11:59:39.000Z</time>
      </trkpt>
      <trkpt lat="44.79242" lon="4.63627">
        <ele>378.87</ele>
        <time>2018-05-29T11:59:49.000Z</time>
      </trkpt>
      <trkpt lat="44.79253" lon="4.63626">
        <ele>380.18</ele>
        <time>2018-05-29T11:59:59.000Z</time>
      </trkpt>
      <trkpt lat="44.79262" lon="4.63619">
        <ele>382.53</ele>
        <time>2018-05-29T12:00:09.000Z</time>
      </trkpt>
      <trkpt lat="44.79271" lon="4.63624">
        <ele>382.89</ele>
        <time>2018-05-29T12:00:23.000Z</time>
      </trkpt>
      <trkpt lat="44.7928" lon="4.63629">
        <ele>383.13</ele>
        <time>2018-05-29T12:00:34.000Z</time>
      </trkpt>
      <trkpt lat="44.79289" lon="4.63626">
        <ele>385.23</ele>
        <time>2018-05-29T12:00:51.000Z</time>
      </trkpt>
      <trkpt lat="44.79291" lon="4.6361">
        <ele>389.1</ele>
        <time>2018-05-29T12:01:13.000Z</time>
      </trkpt>
      <trkpt lat="44.79299" lon="4.63598">
        <ele>393.29</ele>
        <time>2018-05-29T12:01:23.000Z</time>
      </trkpt>
      <trkpt lat="44.79307" lon="4.6359">
        <ele>396.56</ele>
        <time>2018-05-29T12:01:42.000Z</time>
      </trkpt>
      <trkpt lat="44.79323" lon="4.63593">
        <ele>399.06</ele>
        <time>2018-05-29T12:01:52.000Z</time>
      </trkpt>
      <trkpt lat="44.79333" lon="4.6359">
        <ele>401.49</ele>
        <time>2018-05-29T12:02:25.000Z</time>
      </trkpt>
      <trkpt lat="44.79356" lon="4.63599">
        <ele>403.02</ele>
        <time>2018-05-29T12:02:35.000Z</time>
      </trkpt>
      <trkpt lat="44.79365" lon="4.636">
        <ele>404.08</ele>
        <time>2018-05-29T12:02:46.000Z</time>
      </trkpt>
      <trkpt lat="44.79375" lon="4.63605">
        <ele>403.96</ele>
        <time>2018-05-29T12:03:00.000Z</time>
      </trkpt>
      <trkpt lat="44.79384" lon="4.63606">
        <ele>405.13</ele>
        <time>2018-05-29T12:04:12.000Z</time>
      </trkpt>
      <trkpt lat="44.79415" lon="4.63605">
        <ele>410.42</ele>
        <time>2018-05-29T12:04:22.000Z</time>
      </trkpt>
      <trkpt lat="44.79434" lon="4.63611">
        <ele>413.02</ele>
        <time>2018-05-29T12:04:32.000Z</time>
      </trkpt>
      <trkpt lat="44.79442" lon="4.63618">
        <ele>413.23</ele>
        <time>2018-05-29T12:04:44.000Z</time>
      </trkpt>
      <trkpt lat="44.79451" lon="4.63621">
        <ele>414.7</ele>
        <time>2018-05-29T12:04:54.000Z</time>
      </trkpt>
      <trkpt lat="44.79466" lon="4.63622">
        <ele>418.09</ele>
        <time>2018-05-29T12:05:04.000Z</time>
      </trkpt>
      <trkpt lat="44.79474" lon="4.63631">
        <ele>417.75</ele>
        <time>2018-05-29T12:05:22.000Z</time>
      </trkpt>
      <trkpt lat="44.79485" lon="4.63635">
        <ele>419.25</ele>
        <time>2018-05-29T12:05:32.000Z</time>
      </trkpt>
      <trkpt lat="44.79497" lon="4.63643">
        <ele>420.07</ele>
        <time>2018-05-29T12:05:42.000Z</time>
      </trkpt>
      <trkpt lat="44.79513" lon="4.63647">
        <ele>422.23</ele>
        <time>2018-05-29T12:05:52.000Z</time>
      </trkpt>
      <trkpt lat="44.79519" lon="4.63657">
        <ele>420.86</ele>
        <time>2018-05-29T12:06:04.000Z</time>
      </trkpt>
      <trkpt lat="44.79531" lon="4.63666">
        <ele>421.16</ele>
        <time>2018-05-29T12:06:17.000Z</time>
      </trkpt>
      <trkpt lat="44.79546" lon="4.63674">
        <ele>422.09</ele>
        <time>2018-05-29T12:06:27.000Z</time>
      </trkpt>
      <trkpt lat="44.79557" lon="4.6368">
        <ele>422.57</ele>
        <time>2018-05-29T12:06:37.000Z</time>
      </trkpt>
      <trkpt lat="44.79563" lon="4.63669">
        <ele>426.63</ele>
        <time>2018-05-29T12:06:47.000Z</time>
      </trkpt>
      <trkpt lat="44.79576" lon="4.63665">
        <ele>429.07</ele>
        <time>2018-05-29T12:06:57.000Z</time>
      </trkpt>
      <trkpt lat="44.79589" lon="4.63661">
        <ele>430.65</ele>
        <time>2018-05-29T12:07:07.000Z</time>
      </trkpt>
      <trkpt lat="44.79598" lon="4.63658">
        <ele>431.09</ele>
        <time>2018-05-29T12:07:17.000Z</time>
      </trkpt>
      <trkpt lat="44.79608" lon="4.63661">
        <ele>429.33</ele>
        <time>2018-05-29T12:07:31.000Z</time>
      </trkpt>
      <trkpt lat="44.79617" lon="4.63654">
        <ele>430.36</ele>
        <time>2018-05-29T12:07:41.000Z</time>
      </trkpt>
      <trkpt lat="44.79626" lon="4.63652">
        <ele>429.67</ele>
        <time>2018-05-29T12:07:51.000Z</time>
      </trkpt>
      <trkpt lat="44.79634" lon="4.63643">
        <ele>431.08</ele>
        <time>2018-05-29T12:08:02.000Z</time>
      </trkpt>
      <trkpt lat="44.79647" lon="4.63634">
        <ele>432.39</ele>
        <time>2018-05-29T12:08:12.000Z</time>
      </trkpt>
      <trkpt lat="44.79658" lon="4.63616">
        <ele>437.09</ele>
        <time>2018-05-29T12:08:22.000Z</time>
      </trkpt>
      <trkpt lat="44.79671" lon="4.63611">
        <ele>437.95</ele>
        <time>2018-05-29T12:08:32.000Z</time>
      </trkpt>
      <trkpt lat="44.79682" lon="4.6361">
        <ele>437.46</ele>
        <time>2018-05-29T12:08:42.000Z</time>
      </trkpt>
      <trkpt lat="44.79691" lon="4.63603">
        <ele>438.93</ele>
        <time>2018-05-29T12:08:53.000Z</time>
      </trkpt>
      <trkpt lat="44.79697" lon="4.63594">
        <ele>441.54</ele>
        <time>2018-05-29T12:09:12.000Z</time>
      </trkpt>
      <trkpt lat="44.7971" lon="4.63595">
        <ele>440.01</ele>
        <time>2018-05-29T12:09:22.000Z</time>
      </trkpt>
      <trkpt lat="44.79719" lon="4.63597">
        <ele>438.37</ele>
        <time>2018-05-29T12:09:32.000Z</time>
      </trkpt>
      <trkpt lat="44.79729" lon="4.63596">
        <ele>438</ele>
        <time>2018-05-29T12:09:50.000Z</time>
      </trkpt>
      <trkpt lat="44.79746" lon="4.63599">
        <ele>435.99</ele>
        <time>2018-05-29T12:10:00.000Z</time>
      </trkpt>
      <trkpt lat="44.79758" lon="4.63596">
        <ele>436.17</ele>
        <time>2018-05-29T12:10:30.000Z</time>
      </trkpt>
      <trkpt lat="44.79778" lon="4.63587">
        <ele>437.82</ele>
        <time>2018-05-29T12:10:40.000Z</time>
      </trkpt>
      <trkpt lat="44.79787" lon="4.63586">
        <ele>437.64</ele>
        <time>2018-05-29T12:10:50.000Z</time>
      </trkpt>
      <trkpt lat="44.79801" lon="4.63581">
        <ele>438.48</ele>
        <time>2018-05-29T12:11:00.000Z</time>
      </trkpt>
      <trkpt lat="44.79809" lon="4.63574">
        <ele>439.74</ele>
        <time>2018-05-29T12:11:12.000Z</time>
      </trkpt>
      <trkpt lat="44.79818" lon="4.63574">
        <ele>439.41</ele>
        <time>2018-05-29T12:11:22.000Z</time>
      </trkpt>
      <trkpt lat="44.79827" lon="4.63564">
        <ele>440.94</ele>
        <time>2018-05-29T12:11:32.000Z</time>
      </trkpt>
      <trkpt lat="44.79837" lon="4.63556">
        <ele>441.66</ele>
        <time>2018-05-29T12:11:42.000Z</time>
      </trkpt>
      <trkpt lat="44.79826" lon="4.63549">
        <ele>443.29</ele>
        <time>2018-05-29T12:12:42.000Z</time>
      </trkpt>
      <trkpt lat="44.79804" lon="4.6354">
        <ele>445.83</ele>
        <time>2018-05-29T12:12:52.000Z</time>
      </trkpt>
      <trkpt lat="44.79793" lon="4.6354">
        <ele>446.52</ele>
        <time>2018-05-29T12:13:02.000Z</time>
      </trkpt>
      <trkpt lat="44.79784" lon="4.63539">
        <ele>447.27</ele>
        <time>2018-05-29T12:13:12.000Z</time>
      </trkpt>
      <trkpt lat="44.7977" lon="4.63538">
        <ele>448.41</ele>
        <time>2018-05-29T12:13:22.000Z</time>
      </trkpt>
      <trkpt lat="44.79753" lon="4.63532">
        <ele>450.85</ele>
        <time>2018-05-29T12:13:32.000Z</time>
      </trkpt>
      <trkpt lat="44.79741" lon="4.63533">
        <ele>452.08</ele>
        <time>2018-05-29T12:14:12.000Z</time>
      </trkpt>
      <trkpt lat="44.79722" lon="4.63537">
        <ele>453.98</ele>
        <time>2018-05-29T12:14:22.000Z</time>
      </trkpt>
      <trkpt lat="44.79707" lon="4.63535">
        <ele>457.06</ele>
        <time>2018-05-29T12:14:32.000Z</time>
      </trkpt>
      <trkpt lat="44.7969" lon="4.63536">
        <ele>459.06</ele>
        <time>2018-05-29T12:14:42.000Z</time>
      </trkpt>
      <trkpt lat="44.79672" lon="4.63535">
        <ele>461.27</ele>
        <time>2018-05-29T12:14:52.000Z</time>
      </trkpt>
      <trkpt lat="44.79662" lon="4.63539">
        <ele>461.07</ele>
        <time>2018-05-29T12:15:02.000Z</time>
      </trkpt>
      <trkpt lat="44.79651" lon="4.63539">
        <ele>461.52</ele>
        <time>2018-05-29T12:15:17.000Z</time>
      </trkpt>
      <trkpt lat="44.79641" lon="4.63533">
        <ele>463.45</ele>
        <time>2018-05-29T12:15:27.000Z</time>
      </trkpt>
      <trkpt lat="44.79625" lon="4.63525">
        <ele>465.51</ele>
        <time>2018-05-29T12:15:37.000Z</time>
      </trkpt>
      <trkpt lat="44.79614" lon="4.63526">
        <ele>465.1</ele>
        <time>2018-05-29T12:15:47.000Z</time>
      </trkpt>
      <trkpt lat="44.79607" lon="4.63517">
        <ele>466.88</ele>
        <time>2018-05-29T12:16:00.000Z</time>
      </trkpt>
      <trkpt lat="44.79596" lon="4.63518">
        <ele>466.09</ele>
        <time>2018-05-29T12:16:14.000Z</time>
      </trkpt>
      <trkpt lat="44.79579" lon="4.63514">
        <ele>465.86</ele>
        <time>2018-05-29T12:16:24.000Z</time>
      </trkpt>
      <trkpt lat="44.79565" lon="4.63513">
        <ele>464.84</ele>
        <time>2018-05-29T12:16:34.000Z</time>
      </trkpt>
      <trkpt lat="44.79558" lon="4.63504">
        <ele>465.88</ele>
        <time>2018-05-29T12:16:44.000Z</time>
      </trkpt>
      <trkpt lat="44.79548" lon="4.63494">
        <ele>466.71</ele>
        <time>2018-05-29T12:16:54.000Z</time>
      </trkpt>
      <trkpt lat="44.79539" lon="4.63488">
        <ele>466.56</ele>
        <time>2018-05-29T12:17:04.000Z</time>
      </trkpt>
      <trkpt lat="44.79531" lon="4.63479">
        <ele>467.04</ele>
        <time>2018-05-29T12:17:16.000Z</time>
      </trkpt>
      <trkpt lat="44.79523" lon="4.63473">
        <ele>466.79</ele>
        <time>2018-05-29T12:17:27.000Z</time>
      </trkpt>
      <trkpt lat="44.79518" lon="4.6346">
        <ele>467.98</ele>
        <time>2018-05-29T12:17:37.000Z</time>
      </trkpt>
      <trkpt lat="44.79508" lon="4.63457">
        <ele>466.87</ele>
        <time>2018-05-29T12:17:47.000Z</time>
      </trkpt>
      <trkpt lat="44.79498" lon="4.63451">
        <ele>466.06</ele>
        <time>2018-05-29T12:17:57.000Z</time>
      </trkpt>
      <trkpt lat="44.79487" lon="4.63445">
        <ele>465.28</ele>
        <time>2018-05-29T12:18:44.000Z</time>
      </trkpt>
      <trkpt lat="44.79479" lon="4.6344">
        <ele>464.71</ele>
        <time>2018-05-29T12:18:54.000Z</time>
      </trkpt>
      <trkpt lat="44.79474" lon="4.63429">
        <ele>465.6</ele>
        <time>2018-05-29T12:19:08.000Z</time>
      </trkpt>
      <trkpt lat="44.79469" lon="4.63415">
        <ele>466.92</ele>
        <time>2018-05-29T12:19:20.000Z</time>
      </trkpt>
      <trkpt lat="44.79459" lon="4.63408">
        <ele>466.43</ele>
        <time>2018-05-29T12:19:30.000Z</time>
      </trkpt>
      <trkpt lat="44.7946" lon="4.63396">
        <ele>468.24</ele>
        <time>2018-05-29T12:19:40.000Z</time>
      </trkpt>
      <trkpt lat="44.79454" lon="4.63385">
        <ele>468.81</ele>
        <time>2018-05-29T12:19:53.000Z</time>
      </trkpt>
      <trkpt lat="44.79449" lon="4.63375">
        <ele>469.34</ele>
        <time>2018-05-29T12:21:44.000Z</time>
      </trkpt>
      <trkpt lat="44.79461" lon="4.63365">
        <ele>471.97</ele>
        <time>2018-05-29T12:21:54.000Z</time>
      </trkpt>
      <trkpt lat="44.79466" lon="4.63355">
        <ele>473.68</ele>
        <time>2018-05-29T12:23:10.000Z</time>
      </trkpt>
      <trkpt lat="44.79468" lon="4.63341">
        <ele>474.94</ele>
        <time>2018-05-29T12:28:31.000Z</time>
      </trkpt>
      <trkpt lat="44.79476" lon="4.63336">
        <ele>476.39</ele>
        <time>2018-05-29T12:33:41.000Z</time>
      </trkpt>
      <trkpt lat="44.79481" lon="4.63323">
        <ele>477.68</ele>
        <time>2018-05-29T12:33:59.000Z</time>
      </trkpt>
      <trkpt lat="44.79489" lon="4.6333">
        <ele>478.12</ele>
        <time>2018-05-29T12:34:12.000Z</time>
      </trkpt>
      <trkpt lat="44.79498" lon="4.63325">
        <ele>479.2</ele>
        <time>2018-05-29T12:34:27.000Z</time>
      </trkpt>
      <trkpt lat="44.79507" lon="4.63325">
        <ele>479.96</ele>
        <time>2018-05-29T12:34:41.000Z</time>
      </trkpt>
      <trkpt lat="44.79516" lon="4.63321">
        <ele>480.84</ele>
        <time>2018-05-29T12:34:52.000Z</time>
      </trkpt>
      <trkpt lat="44.79521" lon="4.63311">
        <ele>481.46</ele>
        <time>2018-05-29T12:35:20.000Z</time>
      </trkpt>
      <trkpt lat="44.79531" lon="4.63314">
        <ele>482.26</ele>
        <time>2018-05-29T12:35:34.000Z</time>
      </trkpt>
      <trkpt lat="44.7954" lon="4.63318">
        <ele>482.87</ele>
        <time>2018-05-29T12:35:46.000Z</time>
      </trkpt>
      <trkpt lat="44.79546" lon="4.63328">
        <ele>483.17</ele>
        <time>2018-05-29T12:35:57.000Z</time>
      </trkpt>
      <trkpt lat="44.7955" lon="4.6334">
        <ele>483.09</ele>
        <time>2018-05-29T12:36:07.000Z</time>
      </trkpt>
      <trkpt lat="44.79559" lon="4.63345">
        <ele>483.35</ele>
        <time>2018-05-29T12:36:19.000Z</time>
      </trkpt>
      <trkpt lat="44.79568" lon="4.63354">
        <ele>483.25</ele>
        <time>2018-05-29T12:36:29.000Z</time>
      </trkpt>
      <trkpt lat="44.79576" lon="4.63361">
        <ele>483.04</ele>
        <time>2018-05-29T12:36:39.000Z</time>
      </trkpt>
      <trkpt lat="44.79582" lon="4.63382">
        <ele>482.21</ele>
        <time>2018-05-29T12:36:49.000Z</time>
      </trkpt>
      <trkpt lat="44.79588" lon="4.63396">
        <ele>481.47</ele>
        <time>2018-05-29T12:36:59.000Z</time>
      </trkpt>
      <trkpt lat="44.79603" lon="4.63392">
        <ele>481.32</ele>
        <time>2018-05-29T12:37:09.000Z</time>
      </trkpt>
      <trkpt lat="44.79605" lon="4.63405">
        <ele>480.94</ele>
        <time>2018-05-29T12:37:20.000Z</time>
      </trkpt>
      <trkpt lat="44.79617" lon="4.63413">
        <ele>480.44</ele>
        <time>2018-05-29T12:37:30.000Z</time>
      </trkpt>
      <trkpt lat="44.79622" lon="4.63424">
        <ele>479.85</ele>
        <time>2018-05-29T12:37:42.000Z</time>
      </trkpt>
      <trkpt lat="44.79631" lon="4.63432">
        <ele>479.25</ele>
        <time>2018-05-29T12:37:55.000Z</time>
      </trkpt>
      <trkpt lat="44.79622" lon="4.63445">
        <ele>478.46</ele>
        <time>2018-05-29T12:38:05.000Z</time>
      </trkpt>
      <trkpt lat="44.7962" lon="4.63463">
        <ele>476.57</ele>
        <time>2018-05-29T12:38:25.000Z</time>
      </trkpt>
      <trkpt lat="44.79624" lon="4.63481">
        <ele>474.28</ele>
        <time>2018-05-29T12:38:35.000Z</time>
      </trkpt>
      <trkpt lat="44.79634" lon="4.6349">
        <ele>472.91</ele>
        <time>2018-05-29T12:38:49.000Z</time>
      </trkpt>
      <trkpt lat="44.7964" lon="4.63504">
        <ele>470.45</ele>
        <time>2018-05-29T12:38:59.000Z</time>
      </trkpt>
      <trkpt lat="44.79653" lon="4.63504">
        <ele>470.16</ele>
        <time>2018-05-29T12:39:09.000Z</time>
      </trkpt>
      <trkpt lat="44.79667" lon="4.63507">
        <ele>468.61</ele>
        <time>2018-05-29T12:39:19.000Z</time>
      </trkpt>
      <trkpt lat="44.79676" lon="4.63506">
        <ele>467.83</ele>
        <time>2018-05-29T12:39:31.000Z</time>
      </trkpt>
      <trkpt lat="44.79686" lon="4.63512">
        <ele>465.34</ele>
        <time>2018-05-29T12:39:44.000Z</time>
      </trkpt>
      <trkpt lat="44.79694" lon="4.63524">
        <ele>461.54</ele>
        <time>2018-05-29T12:39:57.000Z</time>
      </trkpt>
      <trkpt lat="44.79701" lon="4.63517">
        <ele>461.84</ele>
        <time>2018-05-29T12:40:08.000Z</time>
      </trkpt>
      <trkpt lat="44.79709" lon="4.63509">
        <ele>461.8</ele>
        <time>2018-05-29T12:40:21.000Z</time>
      </trkpt>
      <trkpt lat="44.79717" lon="4.63505">
        <ele>460.66</ele>
        <time>2018-05-29T12:40:37.000Z</time>
      </trkpt>
      <trkpt lat="44.79722" lon="4.63493">
        <ele>460.86</ele>
        <time>2018-05-29T12:40:50.000Z</time>
      </trkpt>
      <trkpt lat="44.7973" lon="4.63486">
        <ele>459.69</ele>
        <time>2018-05-29T12:41:01.000Z</time>
      </trkpt>
      <trkpt lat="44.79736" lon="4.63476">
        <ele>458.64</ele>
        <time>2018-05-29T12:41:20.000Z</time>
      </trkpt>
      <trkpt lat="44.79745" lon="4.63474">
        <ele>456.72</ele>
        <time>2018-05-29T12:41:35.000Z</time>
      </trkpt>
      <trkpt lat="44.79742" lon="4.63461">
        <ele>457.15</ele>
        <time>2018-05-29T12:42:24.000Z</time>
      </trkpt>
      <trkpt lat="44.79742" lon="4.63449">
        <ele>456.77</ele>
        <time>2018-05-29T12:42:40.000Z</time>
      </trkpt>
      <trkpt lat="44.79745" lon="4.63435">
        <ele>454.96</ele>
        <time>2018-05-29T12:44:18.000Z</time>
      </trkpt>
      <trkpt lat="44.79743" lon="4.63422">
        <ele>454.22</ele>
        <time>2018-05-29T12:44:28.000Z</time>
      </trkpt>
      <trkpt lat="44.7974" lon="4.63409">
        <ele>453.53</ele>
        <time>2018-05-29T12:44:38.000Z</time>
      </trkpt>
      <trkpt lat="44.79741" lon="4.63395">
        <ele>451.3</ele>
        <time>2018-05-29T12:44:49.000Z</time>
      </trkpt>
      <trkpt lat="44.79746" lon="4.63381">
        <ele>447.14</ele>
        <time>2018-05-29T12:44:59.000Z</time>
      </trkpt>
      <trkpt lat="44.79739" lon="4.63366">
        <ele>446.24</ele>
        <time>2018-05-29T12:45:09.000Z</time>
      </trkpt>
      <trkpt lat="44.79732" lon="4.63356">
        <ele>446.27</ele>
        <time>2018-05-29T12:45:20.000Z</time>
      </trkpt>
      <trkpt lat="44.79728" lon="4.63343">
        <ele>444.67</ele>
        <time>2018-05-29T12:45:32.000Z</time>
      </trkpt>
      <trkpt lat="44.79721" lon="4.63326">
        <ele>444.03</ele>
        <time>2018-05-29T12:45:42.000Z</time>
      </trkpt>
      <trkpt lat="44.79723" lon="4.63313">
        <ele>440.49</ele>
        <time>2018-05-29T12:45:58.000Z</time>
      </trkpt>
      <trkpt lat="44.79707" lon="4.63303">
        <ele>444.86</ele>
        <time>2018-05-29T12:46:08.000Z</time>
      </trkpt>
      <trkpt lat="44.7971" lon="4.63288">
        <ele>440.44</ele>
        <time>2018-05-29T12:46:22.000Z</time>
      </trkpt>
      <trkpt lat="44.79708" lon="4.63272">
        <ele>438.36</ele>
        <time>2018-05-29T12:46:47.000Z</time>
      </trkpt>
      <trkpt lat="44.79704" lon="4.63256">
        <ele>437.41</ele>
        <time>2018-05-29T12:46:57.000Z</time>
      </trkpt>
      <trkpt lat="44.79697" lon="4.63239">
        <ele>438.62</ele>
        <time>2018-05-29T12:47:07.000Z</time>
      </trkpt>
      <trkpt lat="44.79696" lon="4.63225">
        <ele>437.61</ele>
        <time>2018-05-29T12:47:18.000Z</time>
      </trkpt>
      <trkpt lat="44.79689" lon="4.63215">
        <ele>440.27</ele>
        <time>2018-05-29T12:47:30.000Z</time>
      </trkpt>
      <trkpt lat="44.79687" lon="4.63196">
        <ele>440.32</ele>
        <time>2018-05-29T12:47:40.000Z</time>
      </trkpt>
      <trkpt lat="44.79697" lon="4.6319">
        <ele>435.13</ele>
        <time>2018-05-29T12:47:53.000Z</time>
      </trkpt>
      <trkpt lat="44.79689" lon="4.63173">
        <ele>438.91</ele>
        <time>2018-05-29T12:48:03.000Z</time>
      </trkpt>
      <trkpt lat="44.79686" lon="4.63158">
        <ele>441.2</ele>
        <time>2018-05-29T12:48:13.000Z</time>
      </trkpt>
      <trkpt lat="44.79697" lon="4.63156">
        <ele>436.28</ele>
        <time>2018-05-29T12:48:24.000Z</time>
      </trkpt>
      <trkpt lat="44.79701" lon="4.63142">
        <ele>435.74</ele>
        <time>2018-05-29T12:48:34.000Z</time>
      </trkpt>
      <trkpt lat="44.7971" lon="4.63134">
        <ele>433.18</ele>
        <time>2018-05-29T12:48:49.000Z</time>
      </trkpt>
      <trkpt lat="44.79718" lon="4.63127">
        <ele>430.59</ele>
        <time>2018-05-29T12:48:59.000Z</time>
      </trkpt>
      <trkpt lat="44.79723" lon="4.63113">
        <ele>431.78</ele>
        <time>2018-05-29T12:49:09.000Z</time>
      </trkpt>
      <trkpt lat="44.79727" lon="4.63094">
        <ele>434.34</ele>
        <time>2018-05-29T12:49:19.000Z</time>
      </trkpt>
      <trkpt lat="44.79733" lon="4.63103">
        <ele>429.75</ele>
        <time>2018-05-29T12:49:37.000Z</time>
      </trkpt>
      <trkpt lat="44.79727" lon="4.63113">
        <ele>429.99</ele>
        <time>2018-05-29T12:49:49.000Z</time>
      </trkpt>
      <trkpt lat="44.79719" lon="4.63125">
        <ele>430.47</ele>
        <time>2018-05-29T12:50:00.000Z</time>
      </trkpt>
      <trkpt lat="44.79713" lon="4.63136">
        <ele>431.43</ele>
        <time>2018-05-29T12:50:10.000Z</time>
      </trkpt>
      <trkpt lat="44.79718" lon="4.63152">
        <ele>426.44</ele>
        <time>2018-05-29T12:50:20.000Z</time>
      </trkpt>
      <trkpt lat="44.79721" lon="4.63166">
        <ele>423.64</ele>
        <time>2018-05-29T12:50:31.000Z</time>
      </trkpt>
      <trkpt lat="44.79719" lon="4.6318">
        <ele>424.11</ele>
        <time>2018-05-29T12:50:43.000Z</time>
      </trkpt>
      <trkpt lat="44.79713" lon="4.63196">
        <ele>427.19</ele>
        <time>2018-05-29T12:50:53.000Z</time>
      </trkpt>
      <trkpt lat="44.79721" lon="4.63205">
        <ele>423.86</ele>
        <time>2018-05-29T12:51:06.000Z</time>
      </trkpt>
      <trkpt lat="44.79731" lon="4.63213">
        <ele>419.82</ele>
        <time>2018-05-29T12:51:16.000Z</time>
      </trkpt>
      <trkpt lat="44.79733" lon="4.63226">
        <ele>420.35</ele>
        <time>2018-05-29T12:51:28.000Z</time>
      </trkpt>
      <trkpt lat="44.79742" lon="4.63231">
        <ele>417.21</ele>
        <time>2018-05-29T12:51:48.000Z</time>
      </trkpt>
      <trkpt lat="44.79746" lon="4.63243">
        <ele>417.4</ele>
        <time>2018-05-29T12:51:58.000Z</time>
      </trkpt>
      <trkpt lat="44.79761" lon="4.63254">
        <ele>414.33</ele>
        <time>2018-05-29T12:52:08.000Z</time>
      </trkpt>
      <trkpt lat="44.79774" lon="4.63261">
        <ele>412.35</ele>
        <time>2018-05-29T12:52:18.000Z</time>
      </trkpt>
      <trkpt lat="44.79785" lon="4.63268">
        <ele>411.72</ele>
        <time>2018-05-29T12:52:28.000Z</time>
      </trkpt>
      <trkpt lat="44.79792" lon="4.63278">
        <ele>413.01</ele>
        <time>2018-05-29T12:52:43.000Z</time>
      </trkpt>
      <trkpt lat="44.79805" lon="4.63271">
        <ele>408.79</ele>
        <time>2018-05-29T12:52:53.000Z</time>
      </trkpt>
      <trkpt lat="44.79815" lon="4.63279">
        <ele>409.11</ele>
        <time>2018-05-29T12:53:03.000Z</time>
      </trkpt>
      <trkpt lat="44.7983" lon="4.63273">
        <ele>404.31</ele>
        <time>2018-05-29T12:53:13.000Z</time>
      </trkpt>
      <trkpt lat="44.79839" lon="4.63277">
        <ele>403.53</ele>
        <time>2018-05-29T12:53:23.000Z</time>
      </trkpt>
      <trkpt lat="44.79849" lon="4.63277">
        <ele>401.22</ele>
        <time>2018-05-29T12:53:35.000Z</time>
      </trkpt>
      <trkpt lat="44.79858" lon="4.6328">
        <ele>399.88</ele>
        <time>2018-05-29T12:53:45.000Z</time>
      </trkpt>
      <trkpt lat="44.79867" lon="4.6328">
        <ele>397.29</ele>
        <time>2018-05-29T12:53:59.000Z</time>
      </trkpt>
      <trkpt lat="44.79876" lon="4.63277">
        <ele>394.13</ele>
        <time>2018-05-29T12:54:09.000Z</time>
      </trkpt>
      <trkpt lat="44.79886" lon="4.63282">
        <ele>392.62</ele>
        <time>2018-05-29T12:54:19.000Z</time>
      </trkpt>
      <trkpt lat="44.79897" lon="4.63277">
        <ele>388.75</ele>
        <time>2018-05-29T12:54:29.000Z</time>
      </trkpt>
      <trkpt lat="44.79891" lon="4.63262">
        <ele>386.73</ele>
        <time>2018-05-29T12:54:39.000Z</time>
      </trkpt>
      <trkpt lat="44.79885" lon="4.63253">
        <ele>385.84</ele>
        <time>2018-05-29T12:54:54.000Z</time>
      </trkpt>
      <trkpt lat="44.79878" lon="4.63244">
        <ele>385.34</ele>
        <time>2018-05-29T12:55:08.000Z</time>
      </trkpt>
      <trkpt lat="44.7987" lon="4.63237">
        <ele>385.06</ele>
        <time>2018-05-29T12:55:20.000Z</time>
      </trkpt>
      <trkpt lat="44.79861" lon="4.63231">
        <ele>385.28</ele>
        <time>2018-05-29T12:55:33.000Z</time>
      </trkpt>
      <trkpt lat="44.79854" lon="4.63221">
        <ele>383.69</ele>
        <time>2018-05-29T12:55:44.000Z</time>
      </trkpt>
      <trkpt lat="44.79844" lon="4.63217">
        <ele>384.79</ele>
        <time>2018-05-29T12:56:05.000Z</time>
      </trkpt>
      <trkpt lat="44.79836" lon="4.63211">
        <ele>385.43</ele>
        <time>2018-05-29T12:56:18.000Z</time>
      </trkpt>
      <trkpt lat="44.79829" lon="4.63198">
        <ele>384.31</ele>
        <time>2018-05-29T12:56:50.000Z</time>
      </trkpt>
      <trkpt lat="44.7982" lon="4.63187">
        <ele>384.93</ele>
        <time>2018-05-29T12:57:00.000Z</time>
      </trkpt>
      <trkpt lat="44.79819" lon="4.63171">
        <ele>383.84</ele>
        <time>2018-05-29T12:58:09.000Z</time>
      </trkpt>
      <trkpt lat="44.79841" lon="4.63156">
        <ele>376.76</ele>
        <time>2018-05-29T12:58:19.000Z</time>
      </trkpt>
      <trkpt lat="44.79851" lon="4.63156">
        <ele>373.78</ele>
        <time>2018-05-29T12:58:29.000Z</time>
      </trkpt>
      <trkpt lat="44.79865" lon="4.63147">
        <ele>370.49</ele>
        <time>2018-05-29T12:58:39.000Z</time>
      </trkpt>
      <trkpt lat="44.79877" lon="4.63148">
        <ele>367.16</ele>
        <time>2018-05-29T12:58:50.000Z</time>
      </trkpt>
      <trkpt lat="44.79877" lon="4.63133">
        <ele>368.66</ele>
        <time>2018-05-29T12:59:14.000Z</time>
      </trkpt>
      <trkpt lat="44.79888" lon="4.63123">
        <ele>366.43</ele>
        <time>2018-05-29T12:59:24.000Z</time>
      </trkpt>
      <trkpt lat="44.79899" lon="4.63123">
        <ele>362.91</ele>
        <time>2018-05-29T12:59:34.000Z</time>
      </trkpt>
      <trkpt lat="44.79908" lon="4.63109">
        <ele>361.71</ele>
        <time>2018-05-29T13:00:49.000Z</time>
      </trkpt>
      <trkpt lat="44.79931" lon="4.63098">
        <ele>354.18</ele>
        <time>2018-05-29T13:00:59.000Z</time>
      </trkpt>
      <trkpt lat="44.79943" lon="4.631">
        <ele>349.37</ele>
        <time>2018-05-29T13:01:09.000Z</time>
      </trkpt>
      <trkpt lat="44.79948" lon="4.63089">
        <ele>348.47</ele>
        <time>2018-05-29T13:02:05.000Z</time>
      </trkpt>
      <trkpt lat="44.79974" lon="4.63073">
        <ele>339.85</ele>
        <time>2018-05-29T13:02:15.000Z</time>
      </trkpt>
      <trkpt lat="44.79985" lon="4.63053">
        <ele>339.11</ele>
        <time>2018-05-29T13:02:25.000Z</time>
      </trkpt>
      <trkpt lat="44.79993" lon="4.63042">
        <ele>338.27</ele>
        <time>2018-05-29T13:02:35.000Z</time>
      </trkpt>
      <trkpt lat="44.8001" lon="4.63033">
        <ele>335.17</ele>
        <time>2018-05-29T13:02:45.000Z</time>
      </trkpt>
      <trkpt lat="44.80017" lon="4.63025">
        <ele>335.87</ele>
        <time>2018-05-29T13:03:25.000Z</time>
      </trkpt>
      <trkpt lat="44.80029" lon="4.62979">
        <ele>344.17</ele>
        <time>2018-05-29T13:03:35.000Z</time>
      </trkpt>
      <trkpt lat="44.80037" lon="4.6299">
        <ele>342.07</ele>
        <time>2018-05-29T13:04:48.000Z</time>
      </trkpt>
      <trkpt lat="44.80041" lon="4.63011">
        <ele>337.06</ele>
        <time>2018-05-29T13:04:58.000Z</time>
      </trkpt>
      <trkpt lat="44.80047" lon="4.63026">
        <ele>332.28</ele>
        <time>2018-05-29T13:05:08.000Z</time>
      </trkpt>
      <trkpt lat="44.80058" lon="4.63027">
        <ele>330.95</ele>
        <time>2018-05-29T13:05:18.000Z</time>
      </trkpt>
      <trkpt lat="44.80057" lon="4.63042">
        <ele>325.56</ele>
        <time>2018-05-29T13:05:29.000Z</time>
      </trkpt>
      <trkpt lat="44.80062" lon="4.63053">
        <ele>320.63</ele>
        <time>2018-05-29T13:05:41.000Z</time>
      </trkpt>
      <trkpt lat="44.80068" lon="4.63065">
        <ele>315.1</ele>
        <time>2018-05-29T13:05:53.000Z</time>
      </trkpt>
      <trkpt lat="44.80076" lon="4.63079">
        <ele>309.14</ele>
        <time>2018-05-29T13:06:03.000Z</time>
      </trkpt>
      <trkpt lat="44.80087" lon="4.63072">
        <ele>307.89</ele>
        <time>2018-05-29T13:06:13.000Z</time>
      </trkpt>
      <trkpt lat="44.80097" lon="4.6307">
        <ele>305.88</ele>
        <time>2018-05-29T13:06:23.000Z</time>
      </trkpt>
      <trkpt lat="44.80096" lon="4.63057">
        <ele>310.92</ele>
        <time>2018-05-29T13:07:30.000Z</time>
      </trkpt>
      <trkpt lat="44.80105" lon="4.63061">
        <ele>306.92</ele>
        <time>2018-05-29T13:21:02.000Z</time>
      </trkpt>
      <trkpt lat="44.80124" lon="4.63051">
        <ele>305.61</ele>
        <time>2018-05-29T13:21:12.000Z</time>
      </trkpt>
      <trkpt lat="44.80135" lon="4.63051">
        <ele>302.17</ele>
        <time>2018-05-29T13:21:47.000Z</time>
      </trkpt>
      <trkpt lat="44.8016" lon="4.63028">
        <ele>302.9</ele>
        <time>2018-05-29T13:21:57.000Z</time>
      </trkpt>
      <trkpt lat="44.80182" lon="4.63012">
        <ele>299.64</ele>
        <time>2018-05-29T13:22:07.000Z</time>
      </trkpt>
      <trkpt lat="44.80191" lon="4.63009">
        <ele>295.58</ele>
        <time>2018-05-29T13:22:18.000Z</time>
      </trkpt>
      <trkpt lat="44.802" lon="4.63004">
        <ele>292.88</ele>
        <time>2018-05-29T13:22:30.000Z</time>
      </trkpt>
      <trkpt lat="44.80208" lon="4.62984">
        <ele>292.95</ele>
        <time>2018-05-29T13:22:40.000Z</time>
      </trkpt>
      <trkpt lat="44.80217" lon="4.62975">
        <ele>290.13</ele>
        <time>2018-05-29T13:22:54.000Z</time>
      </trkpt>
      <trkpt lat="44.8023" lon="4.62961">
        <ele>286.77</ele>
        <time>2018-05-29T13:23:04.000Z</time>
      </trkpt>
      <trkpt lat="44.80243" lon="4.62958">
        <ele>279.99</ele>
        <time>2018-05-29T13:23:14.000Z</time>
      </trkpt>
      <trkpt lat="44.80253" lon="4.62951">
        <ele>276.78</ele>
        <time>2018-05-29T13:23:27.000Z</time>
      </trkpt>
      <trkpt lat="44.8026" lon="4.62935">
        <ele>276.86</ele>
        <time>2018-05-29T13:23:37.000Z</time>
      </trkpt>
      <trkpt lat="44.80264" lon="4.62921">
        <ele>276.65</ele>
        <time>2018-05-29T13:23:47.000Z</time>
      </trkpt>
      <trkpt lat="44.80258" lon="4.62909">
        <ele>280.28</ele>
        <time>2018-05-29T13:23:57.000Z</time>
      </trkpt>
      <trkpt lat="44.80259" lon="4.62896">
        <ele>280.42</ele>
        <time>2018-05-29T13:24:08.000Z</time>
      </trkpt>
      <trkpt lat="44.80246" lon="4.62889">
        <ele>286.62</ele>
        <time>2018-05-29T13:24:18.000Z</time>
      </trkpt>
      <trkpt lat="44.80253" lon="4.6288">
        <ele>282.65</ele>
        <time>2018-05-29T13:24:28.000Z</time>
      </trkpt>
      <trkpt lat="44.80255" lon="4.62867">
        <ele>280.83</ele>
        <time>2018-05-29T13:24:42.000Z</time>
      </trkpt>
      <trkpt lat="44.80262" lon="4.62856">
        <ele>276.46</ele>
        <time>2018-05-29T13:24:52.000Z</time>
      </trkpt>
      <trkpt lat="44.8026" lon="4.62842">
        <ele>276.45</ele>
        <time>2018-05-29T13:25:06.000Z</time>
      </trkpt>
      <trkpt lat="44.80265" lon="4.62823">
        <ele>272.66</ele>
        <time>2018-05-29T13:25:16.000Z</time>
      </trkpt>
      <trkpt lat="44.80271" lon="4.62809">
        <ele>268.41</ele>
        <time>2018-05-29T13:25:28.000Z</time>
      </trkpt>
      <trkpt lat="44.80265" lon="4.62794">
        <ele>269.56</ele>
        <time>2018-05-29T13:25:38.000Z</time>
      </trkpt>
      <trkpt lat="44.80263" lon="4.6278">
        <ele>268.87</ele>
        <time>2018-05-29T13:25:56.000Z</time>
      </trkpt>
      <trkpt lat="44.80259" lon="4.62767">
        <ele>269.67</ele>
        <time>2018-05-29T13:26:06.000Z</time>
      </trkpt>
      <trkpt lat="44.8025" lon="4.62757">
        <ele>273.5</ele>
        <time>2018-05-29T13:26:16.000Z</time>
      </trkpt>
      <trkpt lat="44.80243" lon="4.62741">
        <ele>276.1</ele>
        <time>2018-05-29T13:26:26.000Z</time>
      </trkpt>
      <trkpt lat="44.80251" lon="4.62729">
        <ele>271.96</ele>
        <time>2018-05-29T13:27:34.000Z</time>
      </trkpt>
      <trkpt lat="44.80263" lon="4.62703">
        <ele>266.67</ele>
        <time>2018-05-29T13:27:44.000Z</time>
      </trkpt>
      <trkpt lat="44.80274" lon="4.62681">
        <ele>261.59</ele>
        <time>2018-05-29T13:27:54.000Z</time>
      </trkpt>
      <trkpt lat="44.80277" lon="4.62667">
        <ele>259.39</ele>
        <time>2018-05-29T13:28:05.000Z</time>
      </trkpt>
      <trkpt lat="44.8029" lon="4.62652">
        <ele>252.01</ele>
        <time>2018-05-29T13:28:15.000Z</time>
      </trkpt>
      <trkpt lat="44.80293" lon="4.62636">
        <ele>249.89</ele>
        <time>2018-05-29T13:28:25.000Z</time>
      </trkpt>
      <trkpt lat="44.80303" lon="4.62626">
        <ele>243.27</ele>
        <time>2018-05-29T13:28:35.000Z</time>
      </trkpt>
      <trkpt lat="44.80291" lon="4.62619">
        <ele>249.83</ele>
        <time>2018-05-29T13:28:45.000Z</time>
      </trkpt>
      <trkpt lat="44.80294" lon="4.62607">
        <ele>246.85</ele>
        <time>2018-05-29T13:28:57.000Z</time>
      </trkpt>
      <trkpt lat="44.80289" lon="4.62587">
        <ele>247.61</ele>
        <time>2018-05-29T13:29:07.000Z</time>
      </trkpt>
      <trkpt lat="44.8029" lon="4.62574">
        <ele>244.16</ele>
        <time>2018-05-29T13:29:17.000Z</time>
      </trkpt>
      <trkpt lat="44.80276" lon="4.62559">
        <ele>248.54</ele>
        <time>2018-05-29T13:29:27.000Z</time>
      </trkpt>
      <trkpt lat="44.80268" lon="4.62551">
        <ele>250.43</ele>
        <time>2018-05-29T13:29:40.000Z</time>
      </trkpt>
      <trkpt lat="44.80258" lon="4.62547">
        <ele>254.24</ele>
        <time>2018-05-29T13:29:50.000Z</time>
      </trkpt>
      <trkpt lat="44.80252" lon="4.62536">
        <ele>253.2</ele>
        <time>2018-05-29T13:30:00.000Z</time>
      </trkpt>
      <trkpt lat="44.80244" lon="4.62531">
        <ele>255.32</ele>
        <time>2018-05-29T13:30:13.000Z</time>
      </trkpt>
      <trkpt lat="44.80225" lon="4.62522">
        <ele>259.55</ele>
        <time>2018-05-29T13:30:23.000Z</time>
      </trkpt>
      <trkpt lat="44.80216" lon="4.62515">
        <ele>260.76</ele>
        <time>2018-05-29T13:30:33.000Z</time>
      </trkpt>
      <trkpt lat="44.80223" lon="4.62526">
        <ele>261.47</ele>
        <time>2018-05-29T13:30:43.000Z</time>
      </trkpt>
      <trkpt lat="44.80223" lon="4.62511">
        <ele>256.94</ele>
        <time>2018-05-29T13:31:09.000Z</time>
      </trkpt>
      <trkpt lat="44.80222" lon="4.62486">
        <ele>250.34</ele>
        <time>2018-05-29T13:31:19.000Z</time>
      </trkpt>
      <trkpt lat="44.80217" lon="4.62472">
        <ele>248.59</ele>
        <time>2018-05-29T13:31:34.000Z</time>
      </trkpt>
      <trkpt lat="44.80217" lon="4.62457">
        <ele>244.54</ele>
        <time>2018-05-29T13:31:44.000Z</time>
      </trkpt>
      <trkpt lat="44.80211" lon="4.62442">
        <ele>243.07</ele>
        <time>2018-05-29T13:31:54.000Z</time>
      </trkpt>
      <trkpt lat="44.80205" lon="4.62433">
        <ele>243.53</ele>
        <time>2018-05-29T13:32:08.000Z</time>
      </trkpt>
      <trkpt lat="44.80199" lon="4.62422">
        <ele>243.06</ele>
        <time>2018-05-29T13:32:22.000Z</time>
      </trkpt>
      <trkpt lat="44.80207" lon="4.62407">
        <ele>236.19</ele>
        <time>2018-05-29T13:32:32.000Z</time>
      </trkpt>
      <trkpt lat="44.80199" lon="4.624">
        <ele>238.16</ele>
        <time>2018-05-29T13:32:45.000Z</time>
      </trkpt>
      <trkpt lat="44.80188" lon="4.62396">
        <ele>241.94</ele>
        <time>2018-05-29T13:32:55.000Z</time>
      </trkpt>
      <trkpt lat="44.80201" lon="4.62412">
        <ele>239.9</ele>
        <time>2018-05-29T13:33:05.000Z</time>
      </trkpt>
      <trkpt lat="44.80201" lon="4.62394">
        <ele>235.81</ele>
        <time>2018-05-29T13:33:15.000Z</time>
      </trkpt>
      <trkpt lat="44.80198" lon="4.62378">
        <ele>233.43</ele>
        <time>2018-05-29T13:34:18.000Z</time>
      </trkpt>
      <trkpt lat="44.80188" lon="4.62357">
        <ele>233.89</ele>
        <time>2018-05-29T13:34:28.000Z</time>
      </trkpt>
      <trkpt lat="44.80186" lon="4.62345">
        <ele>232.6</ele>
        <time>2018-05-29T13:34:38.000Z</time>
      </trkpt>
      <trkpt lat="44.80195" lon="4.6234">
        <ele>227.53</ele>
        <time>2018-05-29T13:35:29.000Z</time>
      </trkpt>
      <trkpt lat="44.80203" lon="4.62325">
        <ele>221.79</ele>
        <time>2018-05-29T13:35:39.000Z</time>
      </trkpt>
      <trkpt lat="44.80209" lon="4.62315">
        <ele>217.54</ele>
        <time>2018-05-29T13:35:49.000Z</time>
      </trkpt>
      <trkpt lat="44.80208" lon="4.623">
        <ele>216.77</ele>
        <time>2018-05-29T13:36:04.000Z</time>
      </trkpt>
      <trkpt lat="44.80207" lon="4.62287">
        <ele>216.12</ele>
        <time>2018-05-29T13:36:14.000Z</time>
      </trkpt>
      <trkpt lat="44.80206" lon="4.62274">
        <ele>215.6</ele>
        <time>2018-05-29T13:36:28.000Z</time>
      </trkpt>
      <trkpt lat="44.80208" lon="4.62261">
        <ele>213.39</ele>
        <time>2018-05-29T13:36:40.000Z</time>
      </trkpt>
      <trkpt lat="44.8021" lon="4.62246">
        <ele>210.9</ele>
        <time>2018-05-29T13:36:50.000Z</time>
      </trkpt>
      <trkpt lat="44.8022" lon="4.62235">
        <ele>204.23</ele>
        <time>2018-05-29T13:37:01.000Z</time>
      </trkpt>
      <trkpt lat="44.80217" lon="4.62223">
        <ele>204.48</ele>
        <time>2018-05-29T13:37:13.000Z</time>
      </trkpt>
      <trkpt lat="44.80201" lon="4.62208">
        <ele>211.57</ele>
        <time>2018-05-29T13:37:23.000Z</time>
      </trkpt>
      <trkpt lat="44.80211" lon="4.62203">
        <ele>205.47</ele>
        <time>2018-05-29T13:37:33.000Z</time>
      </trkpt>
      <trkpt lat="44.80215" lon="4.62186">
        <ele>201.02</ele>
        <time>2018-05-29T13:38:02.000Z</time>
      </trkpt>
      <trkpt lat="44.80217" lon="4.62166">
        <ele>197.46</ele>
        <time>2018-05-29T13:38:12.000Z</time>
      </trkpt>
      <trkpt lat="44.8021" lon="4.62146">
        <ele>198.27</ele>
        <time>2018-05-29T13:38:22.000Z</time>
      </trkpt>
      <trkpt lat="44.802" lon="4.62132">
        <ele>200.47</ele>
        <time>2018-05-29T13:38:32.000Z</time>
      </trkpt>
      <trkpt lat="44.80196" lon="4.62115">
        <ele>199.48</ele>
        <time>2018-05-29T13:38:42.000Z</time>
      </trkpt>
      <trkpt lat="44.80193" lon="4.62101">
        <ele>197.97</ele>
        <time>2018-05-29T13:38:54.000Z</time>
      </trkpt>
      <trkpt lat="44.80192" lon="4.62086">
        <ele>195.54</ele>
        <time>2018-05-29T13:39:34.000Z</time>
      </trkpt>
      <trkpt lat="44.80192" lon="4.62061">
        <ele>191.55</ele>
        <time>2018-05-29T13:39:44.000Z</time>
      </trkpt>
      <trkpt lat="44.80193" lon="4.62049">
        <ele>189.28</ele>
        <time>2018-05-29T13:40:04.000Z</time>
      </trkpt>
      <trkpt lat="44.8019" lon="4.62036">
        <ele>188.14</ele>
        <time>2018-05-29T13:40:14.000Z</time>
      </trkpt>
      <trkpt lat="44.80201" lon="4.62022">
        <ele>183.16</ele>
        <time>2018-05-29T13:40:24.000Z</time>
      </trkpt>
      <trkpt lat="44.80204" lon="4.62009">
        <ele>180.98</ele>
        <time>2018-05-29T13:40:39.000Z</time>
      </trkpt>
      <trkpt lat="44.8021" lon="4.61998">
        <ele>178.77</ele>
        <time>2018-05-29T13:40:58.000Z</time>
      </trkpt>
      <trkpt lat="44.80218" lon="4.61991">
        <ele>176.88</ele>
        <time>2018-05-29T13:41:10.000Z</time>
      </trkpt>
      <trkpt lat="44.80226" lon="4.61983">
        <ele>175.29</ele>
        <time>2018-05-29T13:41:22.000Z</time>
      </trkpt>
      <trkpt lat="44.80232" lon="4.61974">
        <ele>174.2</ele>
        <time>2018-05-29T13:41:33.000Z</time>
      </trkpt>
      <trkpt lat="44.80242" lon="4.61973">
        <ele>173.18</ele>
        <time>2018-05-29T13:41:47.000Z</time>
      </trkpt>
      <trkpt lat="44.80251" lon="4.61962">
        <ele>172.25</ele>
        <time>2018-05-29T13:41:57.000Z</time>
      </trkpt>
      <trkpt lat="44.80254" lon="4.61949">
        <ele>171.97</ele>
        <time>2018-05-29T13:42:10.000Z</time>
      </trkpt>
      <trkpt lat="44.80263" lon="4.61937">
        <ele>171.3</ele>
        <time>2018-05-29T13:42:20.000Z</time>
      </trkpt>
      <trkpt lat="44.80271" lon="4.61929">
        <ele>170.84</ele>
        <time>2018-05-29T13:42:33.000Z</time>
      </trkpt>
      <trkpt lat="44.80279" lon="4.61934">
        <ele>170.47</ele>
        <time>2018-05-29T13:42:58.000Z</time>
      </trkpt>
      <trkpt lat="44.80285" lon="4.61945">
        <ele>170.34</ele>
        <time>2018-05-29T13:43:16.000Z</time>
      </trkpt>
      <trkpt lat="44.80274" lon="4.61956">
        <ele>170.85</ele>
        <time>2018-05-29T13:43:26.000Z</time>
      </trkpt>
      <trkpt lat="44.80287" lon="4.61955">
        <ele>170.41</ele>
        <time>2018-05-29T13:43:36.000Z</time>
      </trkpt>
      <trkpt lat="44.80296" lon="4.61952">
        <ele>170.22</ele>
        <time>2018-05-29T13:43:49.000Z</time>
      </trkpt>
      <trkpt lat="44.80304" lon="4.61955">
        <ele>170.29</ele>
        <time>2018-05-29T13:43:59.000Z</time>
      </trkpt>
      <trkpt lat="44.80296" lon="4.61952">
        <ele>170.22</ele>
        <time>2018-05-29T13:44:42.000Z</time>
      </trkpt>
      <trkpt lat="44.80287" lon="4.6194">
        <ele>170.22</ele>
        <time>2018-05-29T13:45:32.000Z</time>
      </trkpt>
      <trkpt lat="44.80279" lon="4.61936">
        <ele>170.5</ele>
        <time>2018-05-29T13:45:43.000Z</time>
      </trkpt>
      <trkpt lat="44.8027" lon="4.6193">
        <ele>170.9</ele>
        <time>2018-05-29T13:45:55.000Z</time>
      </trkpt>
      <trkpt lat="44.80265" lon="4.61918">
        <ele>171.1</ele>
        <time>2018-05-29T13:46:08.000Z</time>
      </trkpt>
      <trkpt lat="44.8027" lon="4.61907">
        <ele>170.75</ele>
        <time>2018-05-29T13:46:18.000Z</time>
      </trkpt>
      <trkpt lat="44.80271" lon="4.61894">
        <ele>170.65</ele>
        <time>2018-05-29T13:46:29.000Z</time>
      </trkpt>
      <trkpt lat="44.80273" lon="4.61879">
        <ele>170.43</ele>
        <time>2018-05-29T13:46:39.000Z</time>
      </trkpt>
      <trkpt lat="44.80267" lon="4.61866">
        <ele>170.83</ele>
        <time>2018-05-29T13:46:49.000Z</time>
      </trkpt>
      <trkpt lat="44.8026" lon="4.61857">
        <ele>171.34</ele>
        <time>2018-05-29T13:46:59.000Z</time>
      </trkpt>
      <trkpt lat="44.80254" lon="4.61845">
        <ele>171.75</ele>
        <time>2018-05-29T13:47:11.000Z</time>
      </trkpt>
      <trkpt lat="44.8026" lon="4.61835">
        <ele>171.32</ele>
        <time>2018-05-29T13:47:23.000Z</time>
      </trkpt>
      <trkpt lat="44.80264" lon="4.61827">
        <ele>171.07</ele>
        <time>2018-05-29T13:47:43.000Z</time>
      </trkpt>
    </trkseg>
  </trk>
</gpx>